Observation data for Vigo Park on 08/13/2019      Previous  Date       Current Mesonet Observations  Soil Data  Daily Summary Page  Observations in Plain Language
KVP1 130500Z 04021KT 24/18 A3002 RMK A01 T02370181  RH  071%=      5-min Rain = 0
KVP1 130501Z 04021KT 24/18 A3002 RMK A01 T02370181  RH  071%=      5-min Rain = 0
KVP1 130502Z 04018KT 24/18 A3002 RMK A01 T02370180  RH  071%=      5-min Rain = 0
KVP1 130503Z 04020G26KT 24/18 A3002 RMK A01 T02370180  RH  070%=      5-min Rain = 0
KVP1 130504Z 04019KT 24/18 A3002 RMK A01 T02370180  RH  070%=      5-min Rain = 0
KVP1 130505Z 05019KT 24/18 A3002 RMK A01 T02370180  RH  070%=      5-min Rain = 0
KVP1 130506Z 05020KT 24/18 A3002 RMK A01 T02370180  RH  070%=      5-min Rain = 0
KVP1 130507Z 05022G27KT 24/18 A3002 RMK A01 T02370179  RH  070%=      5-min Rain = 0
KVP1 130508Z 04017G23KT 24/18 A3002 RMK A01 T02380179  RH  070%=      5-min Rain = 0
KVP1 130509Z 04019KT 24/18 A3002 RMK A01 T02380180  RH  070%=      5-min Rain = 0
KVP1 130510Z 04022G27KT 24/18 A3002 RMK A01 T02380179  RH  070%=      5-min Rain = 0
KVP1 130511Z 04021G26KT 24/18 A3002 RMK A01 T02370179  RH  070%=      5-min Rain = 0
KVP1 130512Z 04018KT 24/18 A3002 RMK A01 T02380180  RH  070%=      5-min Rain = 0
KVP1 130513Z 05020KT 24/18 A3002 RMK A01 T02370179  RH  070%=      5-min Rain = 0
KVP1 130514Z 05019KT 24/18 A3002 RMK A01 T02370179  RH  070%=      5-min Rain = 0
KVP1 130515Z 05018KT 24/18 A3003 RMK A01 T02370180  RH  070%=      5-min Rain = 0
KVP1 130516Z 04021G27KT 24/18 A3003 RMK A01 T02370179  RH  070%=      5-min Rain = 0
KVP1 130517Z 05021G26KT 24/18 A3003 RMK A01 T02370179  RH  070%=      5-min Rain = 0
KVP1 130518Z 05022KT 24/18 A3003 RMK A01 T02370178  RH  070%=      5-min Rain = 0
KVP1 130519Z 05020KT 24/18 A3003 RMK A01 T02370178  RH  070%=      5-min Rain = 0
KVP1 130520Z 05017KT 24/18 A3003 RMK A01 T02370178  RH  070%=      5-min Rain = 0
KVP1 130521Z 05020G26KT 24/18 A3003 RMK A01 T02370179  RH  070%=      5-min Rain = 0
KVP1 130522Z 05020KT 24/18 A3003 RMK A01 T02360178  RH  070%=      5-min Rain = 0
KVP1 130523Z 05018G23KT 24/18 A3003 RMK A01 T02370179  RH  070%=      5-min Rain = 0
KVP1 130524Z 05018KT 24/18 A3003 RMK A01 T02360179  RH  070%=      5-min Rain = 0
KVP1 130525Z 05019G25KT 24/18 A3003 RMK A01 T02360179  RH  070%=      5-min Rain = 0
KVP1 130526Z 05019KT 24/18 A3003 RMK A01 T02350179  RH  071%=      5-min Rain = 0
KVP1 130527Z 05022KT 24/18 A3003 RMK A01 T02350179  RH  071%=      5-min Rain = 0
KVP1 130528Z 05021KT 24/18 A3003 RMK A01 T02350180  RH  071%=      5-min Rain = 0
KVP1 130529Z 05022KT 24/18 A3003 RMK A01 T02350180  RH  071%=      5-min Rain = 0
KVP1 130530Z 05017G23KT 24/18 A3003 RMK A01 T02350180  RH  071%=      5-min Rain = 0
KVP1 130531Z 05020G25KT 23/18 A3003 RMK A01 T02340180  RH  072%=      5-min Rain = 0
KVP1 130532Z 05018KT 23/18 A3003 RMK A01 T02340180  RH  072%=      5-min Rain = 0
KVP1 130533Z 06017G22KT 23/18 A3003 RMK A01 T02330180  RH  072%=      5-min Rain = 0
KVP1 130534Z 05018G23KT 23/18 A3003 RMK A01 T02330180  RH  072%=      5-min Rain = 0
KVP1 130535Z 05014KT 23/18 A3003 RMK A01 T02330180  RH  072%=      5-min Rain = 0
KVP1 130536Z 05016G22KT 23/18 A3003 RMK A01 T02330180  RH  072%=      5-min Rain = 0
KVP1 130537Z 05017KT 23/18 A3003 RMK A01 T02320181  RH  073%=      5-min Rain = 0
KVP1 130538Z 05019KT 23/18 A3003 RMK A01 T02320181  RH  073%=      5-min Rain = 0
KVP1 130539Z 05015KT 23/18 A3003 RMK A01 T02320181  RH  073%=      5-min Rain = 0
KVP1 130540Z 05014KT 23/18 A3003 RMK A01 T02320181  RH  073%=      5-min Rain = 0
KVP1 130541Z 05017KT 23/18 A3003 RMK A01 T02310181  RH  073%=      5-min Rain = 0
KVP1 130542Z 06019KT 23/18 A3003 RMK A01 T02310181  RH  074%=      5-min Rain = 0
KVP1 130543Z 05020G25KT 23/18 A3003 RMK A01 T02310182  RH  074%=      5-min Rain = 0
KVP1 130544Z 05018KT 23/18 A3003 RMK A01 T02310181  RH  074%=      5-min Rain = 0
KVP1 130545Z 05016G21KT 23/18 A3003 RMK A01 T02310182  RH  074%=      5-min Rain = 0
KVP1 130546Z 05019KT 23/18 A3002 RMK A01 T02310182  RH  074%=      5-min Rain = 0
KVP1 130547Z 06016KT 23/18 A3003 RMK A01 T02310181  RH  074%=      5-min Rain = 0
KVP1 130548Z 06016G23KT 23/18 A3003 RMK A01 T02310182  RH  074%=      5-min Rain = 0
KVP1 130549Z 06019KT 23/18 A3003 RMK A01 T02300182  RH  074%=      5-min Rain = 0
KVP1 130550Z 06018KT 23/18 A3003 RMK A01 T02300181  RH  074%=      5-min Rain = 0
KVP1 130551Z 06018KT 23/18 A3003 RMK A01 T02300181  RH  074%=      5-min Rain = 0
KVP1 130552Z 06015KT 23/18 A3003 RMK A01 T02290181  RH  074%=      5-min Rain = 0
KVP1 130553Z 06018G23KT 23/18 A3003 RMK A01 T02290181  RH  074%=      5-min Rain = 0
KVP1 130554Z 06020KT 23/18 A3003 RMK A01 T02280181  RH  075%=      5-min Rain = 0
KVP1 130555Z 06017KT 23/18 A3003 RMK A01 T02280181  RH  075%=      5-min Rain = 0
KVP1 130556Z 07015KT 23/18 A3003 RMK A01 T02280181  RH  075%=      5-min Rain = 0
KVP1 130557Z 07021KT 23/18 A3003 RMK A01 T02280181  RH  075%=      5-min Rain = 0
KVP1 130558Z 06022KT 23/18 A3002 RMK A01 T02280180  RH  075%=      5-min Rain = 0
KVP1 130559Z 06020KT 23/18 A3002 RMK A01 T02280180  RH  075%=      5-min Rain = 0
KVP1 130600Z 07020KT 23/18 A3002 RMK A01 T02280181  RH  075%=      5-min Rain = 0
KVP1 130601Z 06020KT 23/18 A3002 RMK A01 T02280181  RH  075%=      5-min Rain = 0
KVP1 130602Z 06020KT 23/18 A3002 RMK A01 T02270180  RH  075%=      5-min Rain = 0
KVP1 130603Z 06018G23KT 23/18 A3002 RMK A01 T02270180  RH  075%=      5-min Rain = 0
KVP1 130604Z 06018KT 23/18 A3002 RMK A01 T02270180  RH  075%=      5-min Rain = 0
KVP1 130605Z 06021KT 23/18 A3002 RMK A01 T02270181  RH  075%=      5-min Rain = 0
KVP1 130606Z 06020KT 23/18 A3002 RMK A01 T02260180  RH  075%=      5-min Rain = 0
KVP1 130607Z 07019KT 23/18 A3002 RMK A01 T02260180  RH  075%=      5-min Rain = 0
KVP1 130608Z 06020KT 23/18 A3002 RMK A01 T02260180  RH  075%=      5-min Rain = 0
KVP1 130609Z 06022KT 23/18 A3002 RMK A01 T02260181  RH  076%=      5-min Rain = 0
KVP1 130610Z 06019KT 23/18 A3002 RMK A01 T02260181  RH  076%=      5-min Rain = 0
KVP1 130611Z 06018G23KT 23/18 A3002 RMK A01 T02260181  RH  076%=      5-min Rain = 0
KVP1 130612Z 06017KT 23/18 A3002 RMK A01 T02250181  RH  076%=      5-min Rain = 0
KVP1 130613Z 06017KT 23/18 A3002 RMK A01 T02250181  RH  076%=      5-min Rain = 0
KVP1 130614Z 06017G22KT 23/18 A3002 RMK A01 T02250181  RH  076%=      5-min Rain = 0
KVP1 130615Z 07019KT 23/18 A3002 RMK A01 T02250180  RH  076%=      5-min Rain = 0
KVP1 130616Z 07020KT 23/18 A3002 RMK A01 T02260181  RH  076%=      5-min Rain = 0
KVP1 130617Z 07017KT 23/18 A3002 RMK A01 T02260181  RH  075%=      5-min Rain = 0
KVP1 130618Z 07020KT 23/18 A3002 RMK A01 T02260181  RH  075%=      5-min Rain = 0
KVP1 130619Z 07019KT 23/18 A3002 RMK A01 T02260181  RH  076%=      5-min Rain = 0
KVP1 130620Z 07015KT 23/18 A3002 RMK A01 T02260181  RH  076%=      5-min Rain = 0
KVP1 130621Z 07018KT 23/18 A3002 RMK A01 T02260181  RH  076%=      5-min Rain = 0
KVP1 130622Z 07016G21KT 23/18 A3002 RMK A01 T02260181  RH  076%=      5-min Rain = 0
KVP1 130623Z 07017KT 23/18 A3002 RMK A01 T02250181  RH  076%=      5-min Rain = 0
KVP1 130624Z 07019KT 23/18 A3002 RMK A01 T02260181  RH  076%=      5-min Rain = 0
KVP1 130625Z 07021KT 23/18 A3002 RMK A01 T02260181  RH  076%=      5-min Rain = 0
KVP1 130626Z 07019KT 23/18 A3002 RMK A01 T02250181  RH  076%=      5-min Rain = 0
KVP1 130627Z 07017KT 23/18 A3002 RMK A01 T02260181  RH  076%=      5-min Rain = 0
KVP1 130628Z 07018G23KT 23/18 A3002 RMK A01 T02250181  RH  076%=      5-min Rain = 0
KVP1 130629Z 07018G23KT 23/18 A3002 RMK A01 T02250181  RH  076%=      5-min Rain = 0
KVP1 130630Z 07019KT 23/18 A3002 RMK A01 T02250181  RH  076%=      5-min Rain = 0
KVP1 130631Z 07019G24KT 23/18 A3002 RMK A01 T02250182  RH  077%=      5-min Rain = 0
KVP1 130632Z 07019KT 23/18 A3002 RMK A01 T02250182  RH  077%=      5-min Rain = 0
KVP1 130633Z 07018KT 22/18 A3002 RMK A01 T02240182  RH  077%=      5-min Rain = 0
KVP1 130634Z 07020KT 22/18 A3002 RMK A01 T02240182  RH  077%=      5-min Rain = 0
KVP1 130635Z 07018KT 22/18 A3002 RMK A01 T02240182  RH  077%=      5-min Rain = 0
KVP1 130636Z 07018KT 22/18 A3002 RMK A01 T02240182  RH  077%=      5-min Rain = 0
KVP1 130637Z 07018KT 22/18 A3002 RMK A01 T02240182  RH  077%=      5-min Rain = 0
KVP1 130638Z 07018KT 22/18 A3002 RMK A01 T02240181  RH  077%=      5-min Rain = 0
KVP1 130639Z 07020KT 22/18 A3002 RMK A01 T02240181  RH  076%=      5-min Rain = 0
KVP1 130640Z 07017G22KT 23/18 A3002 RMK A01 T02250181  RH  076%=      5-min Rain = 0
KVP1 130641Z 07019KT 23/18 A3002 RMK A01 T02250180  RH  076%=      5-min Rain = 0
KVP1 130642Z 07019KT 23/18 A3002 RMK A01 T02250180  RH  076%=      5-min Rain = 0
KVP1 130643Z 07018KT 23/18 A3002 RMK A01 T02260181  RH  076%=      5-min Rain = 0
KVP1 130644Z 08017KT 23/18 A3002 RMK A01 T02250181  RH  076%=      5-min Rain = 0
KVP1 130645Z 08016KT 23/18 A3002 RMK A01 T02260181  RH  076%=      5-min Rain = 0
KVP1 130646Z 08017KT 23/18 A3002 RMK A01 T02250180  RH  076%=      5-min Rain = 0
KVP1 130647Z 07016KT 23/18 A3002 RMK A01 T02250180  RH  075%=      5-min Rain = 0
KVP1 130648Z 07019KT 23/18 A3002 RMK A01 T02260180  RH  075%=      5-min Rain = 0
KVP1 130649Z 07019KT 23/18 A3002 RMK A01 T02260181  RH  075%=      5-min Rain = 0
KVP1 130650Z 08017KT 23/18 A3002 RMK A01 T02270181  RH  075%=      5-min Rain = 0
KVP1 130651Z 08017KT 23/18 A3002 RMK A01 T02260180  RH  075%=      5-min Rain = 0
KVP1 130652Z 08015KT 23/18 A3002 RMK A01 T02270180  RH  075%=      5-min Rain = 0
KVP1 130653Z 08016KT 23/18 A3002 RMK A01 T02260180  RH  075%=      5-min Rain = 0
KVP1 130654Z 08016KT 23/18 A3002 RMK A01 T02260181  RH  075%=      5-min Rain = 0
KVP1 130655Z 08015G20KT 23/18 A3002 RMK A01 T02260181  RH  075%=      5-min Rain = 0
KVP1 130656Z 08018KT 23/18 A3002 RMK A01 T02270181  RH  075%=      5-min Rain = 0
KVP1 130657Z 08017KT 23/18 A3002 RMK A01 T02260181  RH  075%=      5-min Rain = 0
KVP1 130658Z 08015KT 23/18 A3002 RMK A01 T02260180  RH  075%=      5-min Rain = 0
KVP1 130659Z 08017KT 23/18 A3002 RMK A01 T02260180  RH  075%=      5-min Rain = 0
KVP1 130700Z 08017KT 23/18 A3002 RMK A01 T02270181  RH  075%=      5-min Rain = 0
KVP1 130701Z 08016KT 23/18 A3002 RMK A01 T02270181  RH  075%=      5-min Rain = 0
KVP1 130702Z 08016KT 23/18 A3002 RMK A01 T02270181  RH  076%=      5-min Rain = 0
KVP1 130703Z 08015KT 23/18 A3002 RMK A01 T02260182  RH  076%=      5-min Rain = 0
KVP1 130704Z 08015KT 23/18 A3002 RMK A01 T02260182  RH  076%=      5-min Rain = 0
KVP1 130705Z 07018KT 23/18 A3002 RMK A01 T02250182  RH  076%=      5-min Rain = 0
KVP1 130706Z 07017KT 23/18 A3002 RMK A01 T02250182  RH  077%=      5-min Rain = 0
KVP1 130707Z 07017KT 23/18 A3002 RMK A01 T02250182  RH  077%=      5-min Rain = 0
KVP1 130708Z 07015KT 23/18 A3002 RMK A01 T02250182  RH  077%=      5-min Rain = 0
KVP1 130709Z 08014G19KT 23/18 A3002 RMK A01 T02250182  RH  077%=      5-min Rain = 0
KVP1 130710Z 08016KT 23/18 A3002 RMK A01 T02250183  RH  077%=      5-min Rain = 0
KVP1 130711Z 07015KT 22/18 A3002 RMK A01 T02240182  RH  077%=      5-min Rain = 0
KVP1 130712Z 08013KT 22/18 A3002 RMK A01 T02240182  RH  077%=      5-min Rain = 0
KVP1 130713Z 08015KT 22/18 A3002 RMK A01 T02240183  RH  077%=      5-min Rain = 0
KVP1 130714Z 08015G20KT 22/18 A3002 RMK A01 T02240183  RH  077%=      5-min Rain = 0
KVP1 130715Z 08014KT 22/18 A3002 RMK A01 T02230182  RH  077%=      5-min Rain = 0
KVP1 130716Z 08016KT 22/18 A3002 RMK A01 T02240182  RH  077%=      5-min Rain = 0
KVP1 130717Z 08012KT 22/18 A3002 RMK A01 T02240182  RH  077%=      5-min Rain = 0
KVP1 130718Z 08015KT 22/18 A3002 RMK A01 T02240182  RH  077%=      5-min Rain = 0
KVP1 130719Z 08015KT 22/18 A3002 RMK A01 T02240182  RH  077%=      5-min Rain = 0
KVP1 130720Z 08013KT 22/18 A3002 RMK A01 T02240182  RH  077%=      5-min Rain = 0
KVP1 130721Z 08013KT 22/18 A3002 RMK A01 T02240182  RH  077%=      5-min Rain = 0
KVP1 130722Z 08015KT 22/18 A3002 RMK A01 T02240182  RH  077%=      5-min Rain = 0
KVP1 130723Z 08016KT 22/18 A3002 RMK A01 T02240183  RH  078%=      5-min Rain = 0
KVP1 130724Z 08015KT 22/18 A3002 RMK A01 T02230182  RH  078%=      5-min Rain = 0
KVP1 130725Z 08016KT 22/18 A3002 RMK A01 T02230182  RH  078%=      5-min Rain = 0
KVP1 130726Z 08015KT 22/18 A3002 RMK A01 T02230182  RH  078%=      5-min Rain = 0
KVP1 130727Z 08016G21KT 22/18 A3002 RMK A01 T02230183  RH  078%=      5-min Rain = 0
KVP1 130728Z 08017KT 22/18 A3002 RMK A01 T02230183  RH  078%=      5-min Rain = 0
KVP1 130729Z 08015KT 22/18 A3002 RMK A01 T02230182  RH  078%=      5-min Rain = 0
KVP1 130730Z 08017KT 22/18 A3001 RMK A01 T02230182  RH  078%=      5-min Rain = 0
KVP1 130731Z 08017KT 22/18 A3001 RMK A01 T02230183  RH  078%=      5-min Rain = 0
KVP1 130732Z 08014KT 22/18 A3002 RMK A01 T02230183  RH  078%=      5-min Rain = 0
KVP1 130733Z 08017G23KT 22/18 A3002 RMK A01 T02230182  RH  078%=      5-min Rain = 0
KVP1 130734Z 08016KT 22/18 A3002 RMK A01 T02230183  RH  078%=      5-min Rain = 0
KVP1 130735Z 08014KT 22/18 A3002 RMK A01 T02230183  RH  078%=      5-min Rain = 0
KVP1 130736Z 08015KT 22/18 A3002 RMK A01 T02230183  RH  078%=      5-min Rain = 0
KVP1 130737Z 08017KT 22/18 A3001 RMK A01 T02220183  RH  078%=      5-min Rain = 0
KVP1 130738Z 08016KT 22/18 A3002 RMK A01 T02220183  RH  078%=      5-min Rain = 0
KVP1 130739Z 09015KT 22/18 A3001 RMK A01 T02220182  RH  078%=      5-min Rain = 0
KVP1 130740Z 08016KT 22/18 A3001 RMK A01 T02220182  RH  078%=      5-min Rain = 0
KVP1 130741Z 09014KT 22/18 A3001 RMK A01 T02220183  RH  078%=      5-min Rain = 0
KVP1 130742Z 08015KT 22/18 A3001 RMK A01 T02220182  RH  078%=      5-min Rain = 0
KVP1 130743Z 09016KT 22/18 A3001 RMK A01 T02220183  RH  079%=      5-min Rain = 0
KVP1 130744Z 08014KT 22/18 A3001 RMK A01 T02220183  RH  079%=      5-min Rain = 0
KVP1 130745Z 09015KT 22/18 A3001 RMK A01 T02220183  RH  079%=      5-min Rain = 0
KVP1 130746Z 09015KT 22/18 A3001 RMK A01 T02210183  RH  079%=      5-min Rain = 0
KVP1 130747Z 08016G22KT 22/18 A3001 RMK A01 T02210183  RH  079%=      5-min Rain = 0
KVP1 130748Z 09015KT 22/18 A3001 RMK A01 T02210182  RH  079%=      5-min Rain = 0
KVP1 130749Z 09015KT 22/18 A3001 RMK A01 T02220183  RH  078%=      5-min Rain = 0
KVP1 130750Z 08017KT 22/18 A3001 RMK A01 T02210182  RH  078%=      5-min Rain = 0
KVP1 130751Z 09015KT 22/18 A3001 RMK A01 T02220183  RH  078%=      5-min Rain = 0
KVP1 130752Z 09017KT 22/18 A3001 RMK A01 T02210183  RH  079%=      5-min Rain = 0
KVP1 130753Z 09017KT 22/18 A3001 RMK A01 T02210183  RH  079%=      5-min Rain = 0
KVP1 130754Z 09015KT 22/18 A3001 RMK A01 T02210183  RH  079%=      5-min Rain = 0
KVP1 130755Z 09016KT 22/18 A3001 RMK A01 T02220183  RH  079%=      5-min Rain = 0
KVP1 130756Z 09015KT 22/18 A3001 RMK A01 T02210183  RH  079%=      5-min Rain = 0
KVP1 130757Z 09017KT 22/18 A3001 RMK A01 T02210182  RH  078%=      5-min Rain = 0
KVP1 130758Z 09016KT 22/18 A3001 RMK A01 T02220182  RH  078%=      5-min Rain = 0
KVP1 130759Z 09020KT 22/18 A3001 RMK A01 T02220182  RH  078%=      5-min Rain = 0
KVP1 130800Z 09016KT 22/18 A3001 RMK A01 T02230183  RH  078%=      5-min Rain = 0
KVP1 130801Z 09016G22KT 22/18 A3001 RMK A01 T02230183  RH  078%=      5-min Rain = 0
KVP1 130802Z 09015KT 22/18 A3001 RMK A01 T02230182  RH  078%=      5-min Rain = 0
KVP1 130803Z 09016KT 22/18 A3001 RMK A01 T02230182  RH  078%=      5-min Rain = 0
KVP1 130804Z 09016KT 22/18 A3001 RMK A01 T02230182  RH  078%=      5-min Rain = 0
KVP1 130805Z 09016KT 22/18 A3001 RMK A01 T02230182  RH  078%=      5-min Rain = 0
KVP1 130806Z 09015KT 22/18 A3001 RMK A01 T02230183  RH  078%=      5-min Rain = 0
KVP1 130807Z 09015KT 22/18 A3001 RMK A01 T02230183  RH  078%=      5-min Rain = 0
KVP1 130808Z 09016KT 22/18 A3001 RMK A01 T02230183  RH  078%=      5-min Rain = 0
KVP1 130809Z 09016KT 22/18 A3001 RMK A01 T02230183  RH  078%=      5-min Rain = 0
KVP1 130810Z 09016KT 22/18 A3002 RMK A01 T02230183  RH  078%=      5-min Rain = 0
KVP1 130811Z 09015G20KT 22/18 A3001 RMK A01 T02230183  RH  078%=      5-min Rain = 0
KVP1 130812Z 09017KT 22/18 A3001 RMK A01 T02230183  RH  078%=      5-min Rain = 0
KVP1 130813Z 09016G21KT 22/18 A3001 RMK A01 T02230183  RH  078%=      5-min Rain = 0
KVP1 130814Z 09016KT 22/18 A3001 RMK A01 T02220183  RH  078%=      5-min Rain = 0
KVP1 130815Z 09016KT 22/18 A3001 RMK A01 T02220183  RH  078%=      5-min Rain = 0
KVP1 130816Z 09015KT 22/18 A3001 RMK A01 T02220183  RH  079%=      5-min Rain = 0
KVP1 130817Z 09017KT 22/18 A3001 RMK A01 T02220183  RH  079%=      5-min Rain = 0
KVP1 130818Z 09014KT 22/18 A3001 RMK A01 T02220184  RH  079%=      5-min Rain = 0
KVP1 130819Z 09014G19KT 22/18 A3001 RMK A01 T02220183  RH  078%=      5-min Rain = 0
KVP1 130820Z 09016KT 22/18 A3001 RMK A01 T02220183  RH  078%=      5-min Rain = 0
KVP1 130821Z 09016KT 22/18 A3001 RMK A01 T02220183  RH  078%=      5-min Rain = 0
KVP1 130822Z 08016KT 22/18 A3001 RMK A01 T02230183  RH  078%=      5-min Rain = 0
KVP1 130823Z 09016KT 22/18 A3001 RMK A01 T02220183  RH  078%=      5-min Rain = 0
KVP1 130824Z 08017KT 22/18 A3001 RMK A01 T02220183  RH  078%=      5-min Rain = 0
KVP1 130825Z 09017KT 22/18 A3001 RMK A01 T02220183  RH  078%=      5-min Rain = 0
KVP1 130826Z 09018KT 22/18 A3001 RMK A01 T02220183  RH  079%=      5-min Rain = 0
KVP1 130827Z 08015KT 22/18 A3001 RMK A01 T02220184  RH  079%=      5-min Rain = 0
KVP1 130828Z 08016KT 22/18 A3001 RMK A01 T02220183  RH  079%=      5-min Rain = 0
KVP1 130829Z 08016KT 22/18 A3001 RMK A01 T02220184  RH  079%=      5-min Rain = 0
KVP1 130830Z 08017KT 22/18 A3001 RMK A01 T02220184  RH  079%=      5-min Rain = 0
KVP1 130831Z 08015KT 22/18 A3001 RMK A01 T02220184  RH  079%=      5-min Rain = 0
KVP1 130832Z 08018KT 22/18 A3001 RMK A01 T02220184  RH  079%=      5-min Rain = 0
KVP1 130833Z 08016KT 22/18 A3001 RMK A01 T02220184  RH  079%=      5-min Rain = 0
KVP1 130834Z 08017KT 22/18 A3001 RMK A01 T02210184  RH  079%=      5-min Rain = 0
KVP1 130835Z 08016KT 22/19 A3001 RMK A01 T02210185  RH  080%=      5-min Rain = 0
KVP1 130836Z 08017KT 22/19 A3001 RMK A01 T02210185  RH  080%=      5-min Rain = 0
KVP1 130837Z 08016KT 22/19 A3001 RMK A01 T02210185  RH  080%=      5-min Rain = 0
KVP1 130838Z 08014KT 22/19 A3001 RMK A01 T02210185  RH  080%=      5-min Rain = 0
KVP1 130839Z 08016KT 22/19 A3001 RMK A01 T02200185  RH  080%=      5-min Rain = 0
KVP1 130840Z 07015KT 22/19 A3001 RMK A01 T02200185  RH  081%=      5-min Rain = 0
KVP1 130841Z 08018KT 22/19 A3001 RMK A01 T02190185  RH  081%=      5-min Rain = 0
KVP1 130842Z 08014KT 22/19 A3001 RMK A01 T02190185  RH  081%=      5-min Rain = 0
KVP1 130843Z 08014KT 22/19 A3001 RMK A01 T02190185  RH  081%=      5-min Rain = 0
KVP1 130844Z 08017KT 22/19 A3001 RMK A01 T02190185  RH  081%=      5-min Rain = 0
KVP1 130845Z 08013KT 22/19 A3002 RMK A01 T02180185  RH  081%=      5-min Rain = 0
KVP1 130846Z 08014KT 22/19 A3002 RMK A01 T02180185  RH  081%=      5-min Rain = 0
KVP1 130847Z 08016KT 22/19 A3002 RMK A01 T02180185  RH  081%=      5-min Rain = 0
KVP1 130848Z 08013KT 22/19 A3002 RMK A01 T02180185  RH  081%=      5-min Rain = 0
KVP1 130849Z 08013KT 22/19 A3002 RMK A01 T02180185  RH  081%=      5-min Rain = 0
KVP1 130850Z 08014KT 22/19 A3002 RMK A01 T02180185  RH  081%=      5-min Rain = 0
KVP1 130851Z 07013G18KT 22/18 A3002 RMK A01 T02180184  RH  081%=      5-min Rain = 0
KVP1 130852Z 08014KT 22/19 A3002 RMK A01 T02180185  RH  082%=      5-min Rain = 0
KVP1 130853Z 07012KT 22/19 A3002 RMK A01 T02170185  RH  082%=      5-min Rain = 0
KVP1 130854Z 07013KT 22/19 A3002 RMK A01 T02170185  RH  082%=      5-min Rain = 0
KVP1 130855Z 07013KT 22/18 A3002 RMK A01 T02170184  RH  082%=      5-min Rain = 0
KVP1 130856Z 07012KT 22/19 A3002 RMK A01 T02170185  RH  082%=      5-min Rain = 0
KVP1 130857Z 07012KT 22/18 A3002 RMK A01 T02160184  RH  082%=      5-min Rain = 0
KVP1 130858Z 08013KT 22/18 A3002 RMK A01 T02160184  RH  082%=      5-min Rain = 0
KVP1 130859Z 08013KT 22/19 A3002 RMK A01 T02160185  RH  082%=      5-min Rain = 0
KVP1 130900Z 08012KT 22/19 A3002 RMK A01 T02160185  RH  082%=      5-min Rain = 0
KVP1 130901Z 08011KT 22/19 A3002 RMK A01 T02160185  RH  082%=      5-min Rain = 0
KVP1 130902Z 08013KT 22/19 A3002 RMK A01 T02160185  RH  082%=      5-min Rain = 0
KVP1 130903Z 09013KT 22/18 A3002 RMK A01 T02160184  RH  082%=      5-min Rain = 0
KVP1 130904Z 08016KT 22/19 A3002 RMK A01 T02160185  RH  082%=      5-min Rain = 0
KVP1 130905Z 08012KT 22/18 A3002 RMK A01 T02160184  RH  082%=      5-min Rain = 0
KVP1 130906Z 08015KT 22/18 A3002 RMK A01 T02160184  RH  082%=      5-min Rain = 0
KVP1 130907Z 08014KT 22/18 A3002 RMK A01 T02160184  RH  082%=      5-min Rain = 0
KVP1 130908Z 08016KT 22/18 A3002 RMK A01 T02170184  RH  082%=      5-min Rain = 0
KVP1 130909Z 08015KT 22/18 A3002 RMK A01 T02170184  RH  081%=      5-min Rain = 0
KVP1 130910Z 08012KT 22/18 A3003 RMK A01 T02170184  RH  081%=      5-min Rain = 0
KVP1 130911Z 08012KT 22/18 A3003 RMK A01 T02170184  RH  081%=      5-min Rain = 0
KVP1 130912Z 08013KT 22/18 A3003 RMK A01 T02170184  RH  081%=      5-min Rain = 0
KVP1 130913Z 08014KT 22/18 A3003 RMK A01 T02170184  RH  082%=      5-min Rain = 0
KVP1 130914Z 08014G19KT 22/19 A3002 RMK A01 T02170185  RH  082%=      5-min Rain = 0
KVP1 130915Z 08013KT 22/19 A3002 RMK A01 T02170185  RH  082%=      5-min Rain = 0
KVP1 130916Z 08015KT 22/19 A3002 RMK A01 T02170186  RH  083%=      5-min Rain = 0
KVP1 130917Z 09014KT 22/19 A3002 RMK A01 T02160185  RH  083%=      5-min Rain = 0
KVP1 130918Z 09014KT 22/19 A3002 RMK A01 T02160185  RH  083%=      5-min Rain = 0
KVP1 130919Z 09015KT 22/19 A3002 RMK A01 T02150186  RH  083%=      5-min Rain = 0
KVP1 130920Z 09013KT 22/19 A3002 RMK A01 T02150186  RH  083%=      5-min Rain = 0
KVP1 130921Z 09016KT 22/19 A3002 RMK A01 T02160186  RH  083%=      5-min Rain = 0
KVP1 130922Z 09013KT 22/19 A3002 RMK A01 T02160186  RH  083%=      5-min Rain = 0
KVP1 130923Z 09011KT 22/19 A3003 RMK A01 T02160185  RH  083%=      5-min Rain = 0
KVP1 130924Z 09012KT 22/19 A3003 RMK A01 T02160185  RH  083%=      5-min Rain = 0
KVP1 130925Z 09010KT 22/19 A3003 RMK A01 T02150185  RH  083%=      5-min Rain = 0
KVP1 130926Z 09014KT 22/19 A3003 RMK A01 T02150185  RH  083%=      5-min Rain = 0
KVP1 130927Z 09016KT 22/19 A3002 RMK A01 T02160185  RH  083%=      5-min Rain = 0
KVP1 130928Z 09016KT 22/19 A3003 RMK A01 T02160185  RH  082%=      5-min Rain = 0
KVP1 130929Z 09015KT 22/18 A3003 RMK A01 T02160184  RH  082%=      5-min Rain = 0
KVP1 130930Z 09015KT 22/18 A3003 RMK A01 T02160184  RH  082%=      5-min Rain = 0
KVP1 130931Z 09012KT 22/18 A3003 RMK A01 T02160184  RH  082%=      5-min Rain = 0
KVP1 130932Z 09012KT 22/18 A3003 RMK A01 T02160184  RH  082%=      5-min Rain = 0
KVP1 130933Z 09013KT 22/18 A3003 RMK A01 T02160183  RH  082%=      5-min Rain = 0
KVP1 130934Z 10014KT 22/18 A3003 RMK A01 T02160183  RH  081%=      5-min Rain = 0
KVP1 130935Z 10019KT 22/18 A3003 RMK A01 T02170183  RH  081%=      5-min Rain = 0
KVP1 130936Z 10018KT 22/18 A3002 RMK A01 T02170183  RH  081%=      5-min Rain = 0
KVP1 130937Z 10016KT 22/18 A3002 RMK A01 T02180183  RH  081%=      5-min Rain = 0
KVP1 130938Z 10015KT 22/18 A3003 RMK A01 T02180183  RH  081%=      5-min Rain = 0
KVP1 130939Z 10016G21KT 22/18 A3003 RMK A01 T02180183  RH  080%=      5-min Rain = 0
KVP1 130940Z 09016KT 22/18 A3003 RMK A01 T02180183  RH  081%=      5-min Rain = 0
KVP1 130941Z 10016KT 22/18 A3002 RMK A01 T02180183  RH  080%=      5-min Rain = 0
KVP1 130942Z 10014KT 22/18 A3002 RMK A01 T02180183  RH  080%=      5-min Rain = 0
KVP1 130943Z 10014KT 22/18 A3002 RMK A01 T02180183  RH  080%=      5-min Rain = 0
KVP1 130944Z 10015KT 22/18 A3002 RMK A01 T02180183  RH  081%=      5-min Rain = 0
KVP1 130945Z 10016KT 22/18 A3002 RMK A01 T02180183  RH  080%=      5-min Rain = 0
KVP1 130946Z 09015KT 22/18 A3002 RMK A01 T02180183  RH  080%=      5-min Rain = 0
KVP1 130947Z 10018KT 22/18 A3002 RMK A01 T02180183  RH  080%=      5-min Rain = 0
KVP1 130948Z 10015G22KT 22/18 A3002 RMK A01 T02180183  RH  080%=      5-min Rain = 0
KVP1 130949Z 09016KT 22/18 A3003 RMK A01 T02190183  RH  080%=      5-min Rain = 0
KVP1 130950Z 09016KT 22/18 A3003 RMK A01 T02190183  RH  080%=      5-min Rain = 0
KVP1 130951Z 10016KT 22/18 A3003 RMK A01 T02190183  RH  080%=      5-min Rain = 0
KVP1 130952Z 09017KT 22/18 A3003 RMK A01 T02190184  RH  080%=      5-min Rain = 0
KVP1 130953Z 09017KT 22/18 A3003 RMK A01 T02180183  RH  080%=      5-min Rain = 0
KVP1 130954Z 10015KT 22/18 A3003 RMK A01 T02190183  RH  080%=      5-min Rain = 0
KVP1 130955Z 09014KT 22/18 A3003 RMK A01 T02190183  RH  080%=      5-min Rain = 0
KVP1 130956Z 09012KT 22/18 A3003 RMK A01 T02190184  RH  080%=      5-min Rain = 0
KVP1 130957Z 10013KT 22/18 A3003 RMK A01 T02180183  RH  081%=      5-min Rain = 0
KVP1 130958Z 09014KT 22/18 A3003 RMK A01 T02180184  RH  081%=      5-min Rain = 0
KVP1 130959Z 09015KT 22/18 A3003 RMK A01 T02180183  RH  081%=      5-min Rain = 0
KVP1 131000Z 09015KT 22/18 A3003 RMK A01 T02180184  RH  081%=      5-min Rain = 0
KVP1 131001Z 09015KT 22/18 A3003 RMK A01 T02180183  RH  080%=      5-min Rain = 0
KVP1 131002Z 09014KT 22/18 A3003 RMK A01 T02180183  RH  080%=      5-min Rain = 0
KVP1 131003Z 09015KT 22/18 A3003 RMK A01 T02180183  RH  080%=      5-min Rain = 0
KVP1 131004Z 09017KT 22/18 A3003 RMK A01 T02190184  RH  080%=      5-min Rain = 0
KVP1 131005Z 09013KT 22/18 A3003 RMK A01 T02190183  RH  080%=      5-min Rain = 0
KVP1 131006Z 09014KT 22/18 A3003 RMK A01 T02190184  RH  080%=      5-min Rain = 0
KVP1 131007Z 09014KT 22/18 A3003 RMK A01 T02190184  RH  081%=      5-min Rain = 0
KVP1 131008Z 09015KT 22/18 A3003 RMK A01 T02180184  RH  081%=      5-min Rain = 0
KVP1 131009Z 09014KT 22/18 A3003 RMK A01 T02180184  RH  081%=      5-min Rain = 0
KVP1 131010Z 09015KT 22/18 A3003 RMK A01 T02180184  RH  081%=      5-min Rain = 0
KVP1 131011Z 09011KT 22/18 A3003 RMK A01 T02180184  RH  081%=      5-min Rain = 0
KVP1 131012Z 09012KT 22/18 A3003 RMK A01 T02180184  RH  081%=      5-min Rain = 0
KVP1 131013Z 09013KT 22/18 A3003 RMK A01 T02170184  RH  081%=      5-min Rain = 0
KVP1 131014Z 09011KT 22/18 A3003 RMK A01 T02170184  RH  081%=      5-min Rain = 0
KVP1 131015Z 09013KT 22/18 A3003 RMK A01 T02170184  RH  081%=      5-min Rain = 0
KVP1 131016Z 09013KT 22/18 A3003 RMK A01 T02170184  RH  082%=      5-min Rain = 0
KVP1 131017Z 09011KT 22/18 A3003 RMK A01 T02170184  RH  082%=      5-min Rain = 0
KVP1 131018Z 09013KT 22/18 A3003 RMK A01 T02170184  RH  082%=      5-min Rain = 0
KVP1 131019Z 09014KT 22/18 A3003 RMK A01 T02160184  RH  082%=      5-min Rain = 0
KVP1 131020Z 09015KT 22/18 A3003 RMK A01 T02160184  RH  082%=      5-min Rain = 0
KVP1 131021Z 09014KT 22/18 A3003 RMK A01 T02170184  RH  082%=      5-min Rain = 0
KVP1 131022Z 09014KT 22/18 A3003 RMK A01 T02170184  RH  081%=      5-min Rain = 0
KVP1 131023Z 09012KT 22/18 A3003 RMK A01 T02170184  RH  081%=      5-min Rain = 0
KVP1 131024Z 09012KT 22/18 A3003 RMK A01 T02170184  RH  081%=      5-min Rain = 0
KVP1 131025Z 09010KT 22/18 A3003 RMK A01 T02170184  RH  081%=      5-min Rain = 0
KVP1 131026Z 09010KT 22/18 A3003 RMK A01 T02170184  RH  081%=      5-min Rain = 0
KVP1 131027Z 09012KT 22/18 A3003 RMK A01 T02170184  RH  082%=      5-min Rain = 0
KVP1 131028Z 09014KT 22/18 A3003 RMK A01 T02170184  RH  082%=      5-min Rain = 0
KVP1 131029Z 09013KT 22/18 A3003 RMK A01 T02170184  RH  082%=      5-min Rain = 0
KVP1 131030Z 09012KT 22/19 A3004 RMK A01 T02170185  RH  082%=      5-min Rain = 0
KVP1 131031Z 09011KT 22/18 A3004 RMK A01 T02160184  RH  082%=      5-min Rain = 0
KVP1 131032Z 09011KT 22/19 A3004 RMK A01 T02160185  RH  082%=      5-min Rain = 0
KVP1 131033Z 09011KT 22/19 A3004 RMK A01 T02160185  RH  082%=      5-min Rain = 0
KVP1 131034Z 09010KT 22/19 A3004 RMK A01 T02160185  RH  083%=      5-min Rain = 0
KVP1 131035Z 09010KT 22/19 A3004 RMK A01 T02160185  RH  083%=      5-min Rain = 0
KVP1 131036Z 09011KT 22/19 A3004 RMK A01 T02150185  RH  083%=      5-min Rain = 0
KVP1 131037Z 09012KT 22/19 A3004 RMK A01 T02150185  RH  083%=      5-min Rain = 0
KVP1 131038Z 09012KT 22/19 A3004 RMK A01 T02150185  RH  083%=      5-min Rain = 0
KVP1 131039Z 09009KT 22/18 A3004 RMK A01 T02150184  RH  082%=      5-min Rain = 0
KVP1 131040Z 09010KT 22/18 A3004 RMK A01 T02150184  RH  082%=      5-min Rain = 0
KVP1 131041Z 08010KT 22/19 A3004 RMK A01 T02150185  RH  083%=      5-min Rain = 0
KVP1 131042Z 08009KT 22/19 A3004 RMK A01 T02150185  RH  083%=      5-min Rain = 0
KVP1 131043Z 08008KT 22/19 A3004 RMK A01 T02150185  RH  083%=      5-min Rain = 0
KVP1 131044Z 09008KT 22/19 A3004 RMK A01 T02150185  RH  083%=      5-min Rain = 0
KVP1 131045Z 08009KT 22/19 A3004 RMK A01 T02150185  RH  083%=      5-min Rain = 0
KVP1 131046Z 08008KT 22/19 A3004 RMK A01 T02150185  RH  083%=      5-min Rain = 0
KVP1 131047Z 09011G16KT 22/19 A3004 RMK A01 T02150185  RH  083%=      5-min Rain = 0
KVP1 131048Z 09009KT 22/18 A3004 RMK A01 T02150184  RH  083%=      5-min Rain = 0
KVP1 131049Z 09010KT 22/18 A3005 RMK A01 T02150184  RH  083%=      5-min Rain = 0
KVP1 131050Z 09008KT 22/18 A3005 RMK A01 T02160184  RH  082%=      5-min Rain = 0
KVP1 131051Z 09008KT 22/19 A3005 RMK A01 T02160185  RH  082%=      5-min Rain = 0
KVP1 131052Z 09007KT 22/18 A3005 RMK A01 T02160184  RH  082%=      5-min Rain = 0
KVP1 131053Z 08008KT 22/18 A3005 RMK A01 T02150184  RH  082%=      5-min Rain = 0
KVP1 131054Z 09009KT 22/18 A3005 RMK A01 T02150184  RH  083%=      5-min Rain = 0
KVP1 131055Z 08007KT 22/18 A3005 RMK A01 T02150184  RH  082%=      5-min Rain = 0
KVP1 131056Z 08008KT 22/18 A3005 RMK A01 T02150184  RH  082%=      5-min Rain = 0
KVP1 131057Z 08007KT 21/18 A3005 RMK A01 T02140183  RH  082%=      5-min Rain = 0
KVP1 131058Z 09008KT 22/18 A3005 RMK A01 T02150184  RH  082%=      5-min Rain = 0
KVP1 131059Z 09008KT 22/18 A3005 RMK A01 T02150184  RH  083%=      5-min Rain = 0
KVP1 131100Z 08008KT 21/18 A3005 RMK A01 T02140184  RH  083%=      5-min Rain = 0
KVP1 131101Z 09008KT 21/18 A3005 RMK A01 T02140183  RH  083%=      5-min Rain = 0
KVP1 131102Z 08007KT 21/18 A3005 RMK A01 T02140183  RH  083%=      5-min Rain = 0
KVP1 131103Z 08007KT 21/18 A3005 RMK A01 T02140183  RH  082%=      5-min Rain = 0
KVP1 131104Z 08007KT 21/18 A3005 RMK A01 T02140184  RH  083%=      5-min Rain = 0
KVP1 131105Z 08007KT 21/18 A3005 RMK A01 T02140184  RH  083%=      5-min Rain = 0
KVP1 131106Z 08006KT 21/18 A3005 RMK A01 T02140183  RH  083%=      5-min Rain = 0
KVP1 131107Z 09007KT 21/18 A3005 RMK A01 T02130183  RH  083%=      5-min Rain = 0
KVP1 131108Z 09008KT 21/18 A3005 RMK A01 T02130183  RH  083%=      5-min Rain = 0
KVP1 131109Z 09007KT 21/18 A3005 RMK A01 T02130183  RH  083%=      5-min Rain = 0
KVP1 131110Z 09007KT 21/18 A3005 RMK A01 T02130183  RH  083%=      5-min Rain = 0
KVP1 131111Z 09007KT 21/18 A3005 RMK A01 T02130183  RH  083%=      5-min Rain = 0
KVP1 131112Z 09007KT 21/18 A3005 RMK A01 T02130183  RH  083%=      5-min Rain = 0
KVP1 131113Z 09007KT 21/18 A3005 RMK A01 T02130183  RH  083%=      5-min Rain = 0
KVP1 131114Z 09007KT 21/18 A3005 RMK A01 T02130183  RH  083%=      5-min Rain = 0
KVP1 131115Z 09007KT 21/18 A3005 RMK A01 T02130183  RH  083%=      5-min Rain = 0
KVP1 131116Z 09007KT 21/18 A3005 RMK A01 T02120183  RH  083%=      5-min Rain = 0
KVP1 131117Z 10008KT 21/18 A3005 RMK A01 T02130183  RH  083%=      5-min Rain = 0
KVP1 131118Z 10008KT 21/18 A3005 RMK A01 T02130183  RH  083%=      5-min Rain = 0
KVP1 131119Z 10007KT 21/18 A3005 RMK A01 T02130183  RH  083%=      5-min Rain = 0
KVP1 131120Z 10007KT 21/18 A3005 RMK A01 T02130183  RH  083%=      5-min Rain = 0
KVP1 131121Z 10006KT 21/18 A3005 RMK A01 T02130183  RH  083%=      5-min Rain = 0
KVP1 131122Z 10006KT 21/18 A3005 RMK A01 T02130183  RH  083%=      5-min Rain = 0
KVP1 131123Z 10006KT 21/18 A3005 RMK A01 T02120183  RH  083%=      5-min Rain = 0
KVP1 131124Z 09006KT 21/18 A3005 RMK A01 T02120183  RH  083%=      5-min Rain = 0
KVP1 131125Z 09006KT 21/18 A3005 RMK A01 T02110183  RH  084%=      5-min Rain = 0
KVP1 131126Z 09006KT 21/18 A3005 RMK A01 T02110182  RH  084%=      5-min Rain = 0
KVP1 131127Z 09006KT 21/18 A3005 RMK A01 T02110182  RH  084%=      5-min Rain = 0
KVP1 131128Z 09006KT 21/18 A3005 RMK A01 T02110182  RH  084%=      5-min Rain = 0
KVP1 131129Z 09007KT 21/18 A3005 RMK A01 T02110182  RH  083%=      5-min Rain = 0
KVP1 131130Z 09007KT 21/18 A3005 RMK A01 T02110182  RH  083%=      5-min Rain = 0
KVP1 131131Z 09007KT 21/18 A3005 RMK A01 T02110182  RH  083%=      5-min Rain = 0
KVP1 131132Z 09007KT 21/18 A3005 RMK A01 T02120182  RH  083%=      5-min Rain = 0
KVP1 131133Z 09006KT 21/18 A3005 RMK A01 T02110181  RH  083%=      5-min Rain = 0
KVP1 131134Z 09006KT 21/18 A3005 RMK A01 T02110181  RH  083%=      5-min Rain = 0
KVP1 131135Z 09005KT 21/18 A3005 RMK A01 T02110181  RH  083%=      5-min Rain = 0
KVP1 131136Z 09006KT 21/18 A3005 RMK A01 T02110181  RH  083%=      5-min Rain = 0
KVP1 131137Z 09006KT 21/18 A3005 RMK A01 T02100180  RH  083%=      5-min Rain = 0
KVP1 131138Z 09005KT 21/18 A3005 RMK A01 T02100180  RH  083%=      5-min Rain = 0
KVP1 131139Z 09005KT 21/18 A3005 RMK A01 T02100180  RH  083%=      5-min Rain = 0
KVP1 131140Z 09005KT 21/18 A3006 RMK A01 T02100180  RH  083%=      5-min Rain = 0
KVP1 131141Z 09005KT 21/18 A3006 RMK A01 T02090180  RH  083%=      5-min Rain = 0
KVP1 131142Z 08005KT 21/18 A3006 RMK A01 T02090180  RH  084%=      5-min Rain = 0
KVP1 131143Z 08005KT 21/18 A3006 RMK A01 T02080180  RH  084%=      5-min Rain = 0
KVP1 131144Z 07004KT 21/18 A3006 RMK A01 T02080180  RH  084%=      5-min Rain = 0
KVP1 131145Z 07005KT 21/18 A3006 RMK A01 T02080180  RH  084%=      5-min Rain = 0
KVP1 131146Z 07004KT 21/18 A3006 RMK A01 T02080179  RH  084%=      5-min Rain = 0
KVP1 131147Z 07004KT 21/18 A3006 RMK A01 T02080179  RH  084%=      5-min Rain = 0
KVP1 131148Z 07004KT 21/18 A3006 RMK A01 T02070180  RH  084%=      5-min Rain = 0
KVP1 131149Z 06004KT 21/18 A3006 RMK A01 T02070180  RH  085%=      5-min Rain = 0
KVP1 131150Z 06004KT 21/18 A3006 RMK A01 T02060180  RH  085%=      5-min Rain = 0
KVP1 131151Z 06004KT 21/18 A3006 RMK A01 T02060181  RH  085%=      5-min Rain = 0
KVP1 131152Z 06004KT 21/18 A3006 RMK A01 T02060181  RH  085%=      5-min Rain = 0
KVP1 131153Z 06004KT 21/18 A3006 RMK A01 T02060181  RH  086%=      5-min Rain = 0
KVP1 131154Z 06004KT 21/18 A3006 RMK A01 T02060181  RH  086%=      5-min Rain = 0
KVP1 131155Z 05004KT 21/18 A3006 RMK A01 T02060181  RH  086%=      5-min Rain = 0
KVP1 131156Z 05003KT 21/18 A3006 RMK A01 T02050180  RH  086%=      5-min Rain = 0
KVP1 131157Z 04003KT 21/18 A3006 RMK A01 T02050181  RH  086%=      5-min Rain = 0
KVP1 131158Z 05003KT 21/18 A3006 RMK A01 T02050181  RH  086%=      5-min Rain = 0
KVP1 131159Z 04003KT 20/18 A3007 RMK A01 T02040181  RH  086%=      5-min Rain = 0
KVP1 131200Z 04003KT 20/18 A3007 RMK A01 T02040181  RH  087%=      5-min Rain = 0
KVP1 131201Z 04003KT 20/18 A3007 RMK A01 T02030181  RH  087%=      5-min Rain = 0
KVP1 131202Z 03003KT 20/18 A3007 RMK A01 T02030180  RH  087%=      5-min Rain = 0
KVP1 131203Z 04003KT 20/18 A3007 RMK A01 T02030181  RH  087%=      5-min Rain = 0
KVP1 131204Z 03004KT 20/18 A3007 RMK A01 T02020181  RH  088%=      5-min Rain = 0
KVP1 131205Z 03004KT 20/18 A3007 RMK A01 T02020181  RH  088%=      5-min Rain = 0
KVP1 131206Z 02003KT 20/18 A3007 RMK A01 T02020181  RH  088%=      5-min Rain = 0
KVP1 131207Z 02003KT 20/18 A3007 RMK A01 T02020182  RH  088%=      5-min Rain = 0
KVP1 131208Z 02003KT 20/18 A3007 RMK A01 T02020181  RH  088%=      5-min Rain = 0
KVP1 131209Z 01003KT 20/18 A3007 RMK A01 T02010180  RH  088%=      5-min Rain = 0
KVP1 131210Z 01003KT 20/18 A3007 RMK A01 T02000179  RH  087%=      5-min Rain = 0
KVP1 131211Z 00003KT 20/18 A3007 RMK A01 T01990179  RH  088%=      5-min Rain = 0
KVP1 131212Z 01002KT 20/18 A3007 RMK A01 T01980178  RH  088%=      5-min Rain = 0
KVP1 131213Z 01002KT 20/18 A3007 RMK A01 T01970178  RH  089%=      5-min Rain = 0
KVP1 131214Z 02002KT 20/18 A3007 RMK A01 T01970179  RH  089%=      5-min Rain = 0
KVP1 131215Z 02003KT 20/18 A3007 RMK A01 T01960179  RH  090%=      5-min Rain = 0
KVP1 131216Z 02002KT 20/18 A3008 RMK A01 T01960180  RH  090%=      5-min Rain = 0
KVP1 131217Z 02002KT 20/18 A3008 RMK A01 T01960180  RH  091%=      5-min Rain = 0
KVP1 131218Z 02003KT 20/18 A3008 RMK A01 T01960180  RH  090%=      5-min Rain = 0
KVP1 131219Z 02002KT 20/18 A3008 RMK A01 T01960180  RH  090%=      5-min Rain = 0
KVP1 131220Z 02002KT 20/18 A3008 RMK A01 T01960180  RH  090%=      5-min Rain = 0
KVP1 131221Z 02001KT 20/18 A3008 RMK A01 T01960180  RH  090%=      5-min Rain = 0
KVP1 131222Z 01002KT 20/18 A3008 RMK A01 T01960179  RH  090%=      5-min Rain = 0
KVP1 131223Z 01001KT 20/18 A3008 RMK A01 T01960179  RH  090%=      5-min Rain = 0
KVP1 131224Z 01001KT 20/18 A3008 RMK A01 T01960178  RH  090%=      5-min Rain = 0
KVP1 131225Z 36002KT 20/18 A3008 RMK A01 T01950178  RH  089%=      5-min Rain = 0
KVP1 131226Z 36002KT 20/18 A3008 RMK A01 T01950177  RH  089%=      5-min Rain = 0
KVP1 131227Z 35002KT 19/18 A3008 RMK A01 T01940176  RH  089%=      5-min Rain = 0
KVP1 131228Z 35002KT 19/18 A3008 RMK A01 T01940177  RH  090%=      5-min Rain = 0
KVP1 131229Z 35002KT 19/18 A3008 RMK A01 T01940178  RH  090%=      5-min Rain = 0
KVP1 131230Z 35003KT 19/18 A3008 RMK A01 T01940177  RH  090%=      5-min Rain = 0
KVP1 131231Z 34003KT 19/18 A3008 RMK A01 T01930177  RH  090%=      5-min Rain = 0
KVP1 131232Z 34003KT 19/18 A3008 RMK A01 T01940177  RH  090%=      5-min Rain = 0
KVP1 131233Z 34003KT 19/18 A3008 RMK A01 T01940177  RH  090%=      5-min Rain = 0
KVP1 131234Z 33002KT 19/18 A3008 RMK A01 T01940178  RH  090%=      5-min Rain = 0
KVP1 131235Z 33003KT 20/18 A3008 RMK A01 T01950178  RH  090%=      5-min Rain = 0
KVP1 131236Z 33003KT 20/18 A3008 RMK A01 T01950178  RH  090%=      5-min Rain = 0
KVP1 131237Z 34003KT 20/18 A3008 RMK A01 T01960179  RH  090%=      5-min Rain = 0
KVP1 131238Z 34003KT 20/18 A3008 RMK A01 T01960179  RH  090%=      5-min Rain = 0
KVP1 131239Z 34003KT 20/18 A3008 RMK A01 T01970179  RH  090%=      5-min Rain = 0
KVP1 131240Z 34003KT 20/18 A3008 RMK A01 T01970179  RH  089%=      5-min Rain = 0
KVP1 131241Z 34004KT 20/18 A3008 RMK A01 T01980179  RH  089%=      5-min Rain = 0
KVP1 131242Z 34004KT 20/18 A3008 RMK A01 T01980180  RH  089%=      5-min Rain = 0
KVP1 131243Z 34004KT 20/18 A3008 RMK A01 T01990181  RH  089%=      5-min Rain = 0
KVP1 131244Z 34004KT 20/18 A3008 RMK A01 T02000181  RH  089%=      5-min Rain = 0
KVP1 131245Z 34004KT 20/18 A3008 RMK A01 T02010181  RH  088%=      5-min Rain = 0
KVP1 131246Z 34005KT 20/18 A3008 RMK A01 T02020181  RH  088%=      5-min Rain = 0
KVP1 131247Z 34005KT 20/18 A3008 RMK A01 T02020181  RH  088%=      5-min Rain = 0
KVP1 131248Z 35005KT 20/18 A3009 RMK A01 T02030181  RH  087%=      5-min Rain = 0
KVP1 131249Z 35004KT 20/18 A3009 RMK A01 T02030181  RH  087%=      5-min Rain = 0
KVP1 131250Z 35003KT 20/18 A3009 RMK A01 T02040181  RH  087%=      5-min Rain = 0
KVP1 131251Z 00003KT 20/18 A3009 RMK A01 T02040181  RH  087%=      5-min Rain = 0
KVP1 131252Z 00003KT 21/18 A3008 RMK A01 T02050182  RH  086%=      5-min Rain = 0
KVP1 131253Z 01003KT 21/18 A3008 RMK A01 T02070183  RH  086%=      5-min Rain = 0
KVP1 131254Z 01004KT 21/18 A3008 RMK A01 T02080184  RH  086%=      5-min Rain = 0
KVP1 131255Z 02003KT 21/19 A3008 RMK A01 T02100185  RH  086%=      5-min Rain = 0
KVP1 131256Z 02003KT 21/19 A3008 RMK A01 T02100185  RH  085%=      5-min Rain = 0
KVP1 131257Z 02003KT 21/19 A3008 RMK A01 T02110186  RH  085%=      5-min Rain = 0
KVP1 131258Z 02003KT 21/19 A3008 RMK A01 T02120186  RH  085%=      5-min Rain = 0
KVP1 131259Z 02004KT 21/19 A3009 RMK A01 T02130186  RH  085%=      5-min Rain = 0
KVP1 131300Z 02004KT 21/19 A3009 RMK A01 T02130186  RH  084%=      5-min Rain = 0
KVP1 131301Z 01004KT 21/19 A3009 RMK A01 T02140186  RH  084%=      5-min Rain = 0
KVP1 131302Z 01003KT 21/19 A3009 RMK A01 T02140186  RH  084%=      5-min Rain = 0
KVP1 131303Z 01003KT 22/19 A3009 RMK A01 T02150186  RH  084%=      5-min Rain = 0
KVP1 131304Z 01003KT 22/19 A3009 RMK A01 T02150186  RH  083%=      5-min Rain = 0
KVP1 131305Z 01004KT 22/19 A3009 RMK A01 T02160186  RH  083%=      5-min Rain = 0
KVP1 131306Z 01003KT 22/19 A3009 RMK A01 T02160186  RH  083%=      5-min Rain = 0
KVP1 131307Z 01004KT 22/19 A3009 RMK A01 T02170187  RH  083%=      5-min Rain = 0
KVP1 131308Z 01004KT 22/19 A3009 RMK A01 T02170186  RH  083%=      5-min Rain = 0
KVP1 131309Z 01004KT 22/19 A3009 RMK A01 T02180187  RH  082%=      5-min Rain = 0
KVP1 131310Z 01004KT 22/19 A3009 RMK A01 T02190187  RH  082%=      5-min Rain = 0
KVP1 131311Z 00004KT 22/19 A3009 RMK A01 T02200187  RH  082%=      5-min Rain = 0
KVP1 131312Z 00004KT 22/19 A3009 RMK A01 T02210187  RH  081%=      5-min Rain = 0
KVP1 131313Z 35003KT 22/19 A3009 RMK A01 T02210187  RH  081%=      5-min Rain = 0
KVP1 131314Z 00003KT 22/19 A3009 RMK A01 T02220188  RH  081%=      5-min Rain = 0
KVP1 131315Z 00003KT 22/19 A3009 RMK A01 T02230187  RH  080%=      5-min Rain = 0
KVP1 131316Z 00004KT 22/19 A3009 RMK A01 T02240188  RH  080%=      5-min Rain = 0
KVP1 131317Z 36004KT 22/19 A3009 RMK A01 T02240187  RH  079%=      5-min Rain = 0
KVP1 131318Z 36006KT 22/19 A3009 RMK A01 T02240187  RH  079%=      5-min Rain = 0
KVP1 131319Z 35006KT 23/19 A3009 RMK A01 T02250187  RH  079%=      5-min Rain = 0
KVP1 131320Z 00006KT 22/19 A3009 RMK A01 T02240186  RH  079%=      5-min Rain = 0
KVP1 131321Z 01006KT 22/19 A3009 RMK A01 T02240187  RH  079%=      5-min Rain = 0
KVP1 131322Z 00004KT 22/19 A3009 RMK A01 T02240187  RH  079%=      5-min Rain = 0
KVP1 131323Z 01004KT 23/19 A301 RMK A01 T02250187  RH  079%=      5-min Rain = 0
KVP1 131324Z 01005KT 23/19 A301 RMK A01 T02270187  RH  078%=      5-min Rain = 0
KVP1 131325Z 01005KT 23/19 A301 RMK A01 T02280187  RH  078%=      5-min Rain = 0
KVP1 131326Z 35005KT 23/19 A301 RMK A01 T02280187  RH  078%=      5-min Rain = 0
KVP1 131327Z 00007KT 23/19 A301 RMK A01 T02280187  RH  078%=      5-min Rain = 0
KVP1 131328Z 36006KT 23/19 A301 RMK A01 T02270187  RH  078%=      5-min Rain = 0
KVP1 131329Z 36006KT 23/19 A301 RMK A01 T02270187  RH  078%=      5-min Rain = 0
KVP1 131330Z 00005KT 23/19 A301 RMK A01 T02270187  RH  078%=      5-min Rain = 0
KVP1 131331Z 36005KT 23/19 A301 RMK A01 T02270187  RH  078%=      5-min Rain = 0
KVP1 131332Z 01004KT 23/19 A301 RMK A01 T02280188  RH  078%=      5-min Rain = 0
KVP1 131333Z 01005KT 23/19 A301 RMK A01 T02300188  RH  077%=      5-min Rain = 0
KVP1 131334Z 01005KT 23/19 A301 RMK A01 T02300188  RH  077%=      5-min Rain = 0
KVP1 131335Z 01006KT 23/19 A301 RMK A01 T02310187  RH  076%=      5-min Rain = 0
KVP1 131336Z 01005KT 23/19 A301 RMK A01 T02310187  RH  076%=      5-min Rain = 0
KVP1 131337Z 01007KT 23/19 A301 RMK A01 T02300188  RH  077%=      5-min Rain = 0
KVP1 131338Z 01007KT 23/19 A301 RMK A01 T02310188  RH  077%=      5-min Rain = 0
KVP1 131339Z 01006KT 23/19 A301 RMK A01 T02300188  RH  077%=      5-min Rain = 0
KVP1 131340Z 01005KT 23/19 A301 RMK A01 T02300188  RH  077%=      5-min Rain = 0
KVP1 131341Z 03005KT 23/19 A301 RMK A01 T02300188  RH  077%=      5-min Rain = 0
KVP1 131342Z 02006KT 23/19 A301 RMK A01 T02310187  RH  077%=      5-min Rain = 0
KVP1 131343Z 01004KT 23/19 A301 RMK A01 T02310188  RH  077%=      5-min Rain = 0
KVP1 131344Z 02006KT 23/19 A301 RMK A01 T02310188  RH  076%=      5-min Rain = 0
KVP1 131345Z 02004KT 23/19 A301 RMK A01 T02320188  RH  076%=      5-min Rain = 0
KVP1 131346Z 02004KT 23/19 A301 RMK A01 T02310188  RH  077%=      5-min Rain = 0
KVP1 131347Z 02007KT 23/19 A3011 RMK A01 T02310187  RH  076%=      5-min Rain = 0
KVP1 131348Z 03006KT 23/19 A3011 RMK A01 T02320187  RH  076%=      5-min Rain = 0
KVP1 131349Z 02004KT 23/19 A3011 RMK A01 T02320187  RH  076%=      5-min Rain = 0
KVP1 131350Z 01005KT 23/19 A3011 RMK A01 T02320188  RH  076%=      5-min Rain = 0
KVP1 131351Z 03005KT 23/19 A3011 RMK A01 T02330188  RH  076%=      5-min Rain = 0
KVP1 131352Z 03006KT 23/19 A3011 RMK A01 T02340188  RH  075%=      5-min Rain = 0
KVP1 131353Z 01005KT 23/19 A3011 RMK A01 T02340188  RH  075%=      5-min Rain = 0
KVP1 131354Z 02005KT 23/19 A3011 RMK A01 T02340187  RH  075%=      5-min Rain = 0
KVP1 131355Z 02004KT 23/19 A3011 RMK A01 T02340189  RH  075%=      5-min Rain = 0
KVP1 131356Z 03006KT 24/19 A3011 RMK A01 T02350188  RH  075%=      5-min Rain = 0
KVP1 131357Z 04005KT 24/19 A3011 RMK A01 T02360188  RH  074%=      5-min Rain = 0
KVP1 131358Z 05003KT 24/19 A3011 RMK A01 T02370188  RH  074%=      5-min Rain = 0
KVP1 131359Z 04004KT 24/19 A3011 RMK A01 T02390188  RH  073%=      5-min Rain = 0
KVP1 131400Z 04006KT 24/19 A3011 RMK A01 T02390189  RH  073%=      5-min Rain = 0
KVP1 131401Z 05007KT 24/19 A3011 RMK A01 T02410189  RH  073%=      5-min Rain = 0
KVP1 131402Z 06006KT 24/19 A3011 RMK A01 T02420188  RH  072%=      5-min Rain = 0
KVP1 131403Z 05004KT 24/19 A3011 RMK A01 T02400187  RH  072%=      5-min Rain = 0
KVP1 131404Z 05006KT 24/19 A3011 RMK A01 T02400188  RH  073%=      5-min Rain = 0
KVP1 131405Z 05006KT 24/19 A3011 RMK A01 T02400187  RH  072%=      5-min Rain = 0
KVP1 131406Z 04005KT 24/19 A3011 RMK A01 T02390187  RH  073%=      5-min Rain = 0
KVP1 131407Z 05005KT 24/19 A3011 RMK A01 T02390187  RH  073%=      5-min Rain = 0
KVP1 131408Z 05005KT 24/19 A3011 RMK A01 T02390187  RH  073%=      5-min Rain = 0
KVP1 131409Z 05006KT 24/19 A3011 RMK A01 T02390188  RH  073%=      5-min Rain = 0
KVP1 131410Z 05006KT 24/19 A3011 RMK A01 T02410187  RH  072%=      5-min Rain = 0
KVP1 131411Z 05006KT 24/19 A3011 RMK A01 T02410186  RH  072%=      5-min Rain = 0
KVP1 131412Z 05006KT 24/19 A3011 RMK A01 T02400187  RH  072%=      5-min Rain = 0
KVP1 131413Z 04006KT 24/19 A3011 RMK A01 T02410186  RH  072%=      5-min Rain = 0
KVP1 131414Z 05006KT 24/19 A3011 RMK A01 T02410187  RH  072%=      5-min Rain = 0
KVP1 131415Z 06005KT 24/19 A3011 RMK A01 T02430188  RH  071%=      5-min Rain = 0
KVP1 131416Z 05004KT 25/19 A3011 RMK A01 T02450188  RH  070%=      5-min Rain = 0
KVP1 131417Z 03006KT 25/19 A3011 RMK A01 T02470187  RH  069%=      5-min Rain = 0
KVP1 131418Z 04009KT 25/19 A3011 RMK A01 T02470188  RH  069%=      5-min Rain = 0
KVP1 131419Z 05006KT 25/19 A3011 RMK A01 T02470187  RH  069%=      5-min Rain = 0
KVP1 131420Z 04007KT 25/19 A3011 RMK A01 T02480187  RH  069%=      5-min Rain = 0
KVP1 131421Z 03007KT 25/19 A3011 RMK A01 T02450186  RH  070%=      5-min Rain = 0
KVP1 131422Z 04006KT 24/19 A3011 RMK A01 T02440185  RH  070%=      5-min Rain = 0
KVP1 131423Z 06006KT 24/19 A3011 RMK A01 T02430186  RH  071%=      5-min Rain = 0
KVP1 131424Z 06005KT 24/19 A3011 RMK A01 T02430186  RH  070%=      5-min Rain = 0
KVP1 131425Z 05005KT 24/19 A3011 RMK A01 T02430186  RH  071%=      5-min Rain = 0
KVP1 131426Z 05006KT 24/19 A3011 RMK A01 T02440186  RH  070%=      5-min Rain = 0
KVP1 131427Z 04005KT 25/19 A3012 RMK A01 T02450187  RH  070%=      5-min Rain = 0
KVP1 131428Z 04005KT 25/19 A3012 RMK A01 T02460187  RH  070%=      5-min Rain = 0
KVP1 131429Z 04006KT 25/19 A3012 RMK A01 T02470187  RH  069%=      5-min Rain = 0
KVP1 131430Z 05005KT 25/19 A3012 RMK A01 T02480186  RH  068%=      5-min Rain = 0
KVP1 131431Z 06005KT 25/19 A3012 RMK A01 T02490185  RH  068%=      5-min Rain = 0
KVP1 131432Z 04005KT 25/19 A3012 RMK A01 T02490186  RH  068%=      5-min Rain = 0
KVP1 131433Z 04005KT 25/19 A3012 RMK A01 T02490186  RH  068%=      5-min Rain = 0
KVP1 131434Z 05003KT 25/19 A3012 RMK A01 T02490186  RH  068%=      5-min Rain = 0
KVP1 131435Z 01004KT 25/19 A3012 RMK A01 T02480187  RH  069%=      5-min Rain = 0
KVP1 131436Z 04005KT 25/19 A3012 RMK A01 T02490186  RH  068%=      5-min Rain = 0
KVP1 131437Z 04005KT 25/19 A3012 RMK A01 T02500186  RH  068%=      5-min Rain = 0
KVP1 131438Z 02006KT 25/19 A3012 RMK A01 T02520186  RH  067%=      5-min Rain = 0
KVP1 131439Z 03006KT 25/19 A3012 RMK A01 T02520186  RH  067%=      5-min Rain = 0
KVP1 131440Z 05006KT 25/18 A3012 RMK A01 T02520184  RH  066%=      5-min Rain = 0
KVP1 131441Z 01006KT 25/19 A3012 RMK A01 T02520185  RH  067%=      5-min Rain = 0
KVP1 131442Z 01006KT 25/19 A3012 RMK A01 T02530186  RH  067%=      5-min Rain = 0
KVP1 131443Z 03006KT 25/19 A3012 RMK A01 T02540186  RH  066%=      5-min Rain = 0
KVP1 131444Z 04007KT 26/19 A3012 RMK A01 T02560185  RH  065%=      5-min Rain = 0
KVP1 131445Z 05006KT 26/18 A3012 RMK A01 T02560184  RH  064%=      5-min Rain = 0
KVP1 131446Z 06004KT 26/18 A3012 RMK A01 T02560184  RH  064%=      5-min Rain = 0
KVP1 131447Z 05006KT 26/18 A3012 RMK A01 T02560184  RH  064%=      5-min Rain = 0
KVP1 131448Z 06006KT 26/18 A3012 RMK A01 T02580184  RH  064%=      5-min Rain = 0
KVP1 131449Z 05005KT 26/18 A3012 RMK A01 T02610184  RH  062%=      5-min Rain = 0
KVP1 131450Z 04004KT 26/18 A3012 RMK A01 T02600183  RH  062%=      5-min Rain = 0
KVP1 131451Z 03004KT 26/18 A3012 RMK A01 T02570182  RH  063%=      5-min Rain = 0
KVP1 131452Z 03002KT 26/18 A3012 RMK A01 T02560183  RH  064%=      5-min Rain = 0
KVP1 131453Z 05004KT 26/18 A3012 RMK A01 T02560183  RH  064%=      5-min Rain = 0
KVP1 131454Z 05006KT 26/18 A3012 RMK A01 T02580183  RH  063%=      5-min Rain = 0
KVP1 131455Z 06005KT 26/18 A3012 RMK A01 T02600182  RH  062%=      5-min Rain = 0
KVP1 131456Z 07004KT 26/18 A3012 RMK A01 T02600182  RH  062%=      5-min Rain = 0
KVP1 131457Z 07004KT 26/18 A3012 RMK A01 T02590183  RH  063%=      5-min Rain = 0
KVP1 131458Z 02006KT 26/18 A3012 RMK A01 T02590183  RH  063%=      5-min Rain = 0
KVP1 131459Z 03009KT 26/18 A3012 RMK A01 T02590182  RH  062%=      5-min Rain = 0
KVP1 131500Z 05006KT 26/18 A3012 RMK A01 T02590181  RH  062%=      5-min Rain = 0
KVP1 131501Z 07005KT 26/18 A3012 RMK A01 T02590182  RH  062%=      5-min Rain = 0
KVP1 131502Z 08005KT 26/18 A3012 RMK A01 T02600182  RH  062%=      5-min Rain = 0
KVP1 131503Z 08004KT 26/18 A3012 RMK A01 T02610182  RH  062%=      5-min Rain = 0
KVP1 131504Z 07004KT 26/18 A3012 RMK A01 T02610182  RH  062%=      5-min Rain = 0
KVP1 131505Z 05005KT 26/18 A3012 RMK A01 T02620182  RH  061%=      5-min Rain = 0
KVP1 131506Z 07007KT 26/18 A3012 RMK A01 T02640182  RH  061%=      5-min Rain = 0
KVP1 131507Z 05006KT 26/18 A3012 RMK A01 T02630181  RH  061%=      5-min Rain = 0
KVP1 131508Z 03005KT 26/18 A3012 RMK A01 T02620181  RH  061%=      5-min Rain = 0
KVP1 131509Z 04002KT 26/18 A3012 RMK A01 T02620180  RH  061%=      5-min Rain = 0
KVP1 131510Z 05004KT 26/18 A3012 RMK A01 T02610181  RH  061%=      5-min Rain = 0
KVP1 131511Z 05006KT 26/18 A3012 RMK A01 T02610179  RH  060%=      5-min Rain = 0
KVP1 131512Z 06007KT 26/18 A3012 RMK A01 T02630179  RH  060%=      5-min Rain = 0
KVP1 131513Z 06008KT 27/18 A3012 RMK A01 T02670178  RH  058%=      5-min Rain = 0
KVP1 131514Z 06006KT 27/18 A3013 RMK A01 T02670178  RH  058%=      5-min Rain = 0
KVP1 131515Z 06005KT 27/18 A3013 RMK A01 T02670178  RH  058%=      5-min Rain = 0
KVP1 131516Z 07002KT 27/18 A3013 RMK A01 T02660178  RH  058%=      5-min Rain = 0
KVP1 131517Z 08003KT 27/18 A3012 RMK A01 T02650179  RH  059%=      5-min Rain = 0
KVP1 131518Z 06007KT 27/18 A3013 RMK A01 T02670180  RH  059%=      5-min Rain = 0
KVP1 131519Z 06005KT 27/18 A3013 RMK A01 T02690179  RH  058%=      5-min Rain = 0
KVP1 131520Z 04005KT 27/18 A3013 RMK A01 T02680177  RH  058%=      5-min Rain = 0
KVP1 131521Z 06003KT 27/18 A3013 RMK A01 T02660176  RH  058%=      5-min Rain = 0
KVP1 131522Z 06005KT 27/18 A3013 RMK A01 T02660177  RH  058%=      5-min Rain = 0
KVP1 131523Z 04005KT 27/18 A3013 RMK A01 T02700180  RH  058%=      5-min Rain = 0
KVP1 131524Z 04006KT 27/18 A3013 RMK A01 T02720181  RH  057%=      5-min Rain = 0
KVP1 131525Z 03003KT 27/18 A3013 RMK A01 T02720179  RH  057%=      5-min Rain = 0
KVP1 131526Z 04006KT 27/18 A3013 RMK A01 T02710179  RH  057%=      5-min Rain = 0
KVP1 131527Z 03005KT 27/18 A3013 RMK A01 T02710179  RH  057%=      5-min Rain = 0
KVP1 131528Z 03004KT 27/18 A3013 RMK A01 T02710179  RH  057%=      5-min Rain = 0
KVP1 131529Z 03006KT 27/18 A3013 RMK A01 T02710179  RH  057%=      5-min Rain = 0
KVP1 131530Z 05006KT 27/18 A3013 RMK A01 T02720179  RH  057%=      5-min Rain = 0
KVP1 131531Z 07006KT 27/18 A3013 RMK A01 T02730178  RH  056%=      5-min Rain = 0
KVP1 131532Z 07006KT 27/18 A3013 RMK A01 T02730179  RH  057%=      5-min Rain = 0
KVP1 131533Z 08006KT 27/18 A3013 RMK A01 T02730179  RH  056%=      5-min Rain = 0
KVP1 131534Z 06008KT 27/18 A3013 RMK A01 T02720178  RH  057%=      5-min Rain = 0
KVP1 131535Z 08005KT 27/18 A3013 RMK A01 T02730179  RH  056%=      5-min Rain = 0
KVP1 131536Z 01005KT 28/18 A3013 RMK A01 T02750179  RH  056%=      5-min Rain = 0
KVP1 131537Z 06006KT 28/18 A3013 RMK A01 T02750179  RH  056%=      5-min Rain = 0
KVP1 131538Z 07005KT 28/18 A3013 RMK A01 T02760178  RH  055%=      5-min Rain = 0
KVP1 131539Z 06005KT 27/18 A3013 RMK A01 T02730178  RH  056%=      5-min Rain = 0
KVP1 131540Z 06006KT 27/18 A3013 RMK A01 T02730178  RH  056%=      5-min Rain = 0
KVP1 131541Z 07006KT 27/18 A3013 RMK A01 T02740177  RH  056%=      5-min Rain = 0
KVP1 131542Z 05005KT 27/18 A3013 RMK A01 T02740177  RH  055%=      5-min Rain = 0
KVP1 131543Z 03005KT 27/18 A3013 RMK A01 T02740176  RH  055%=      5-min Rain = 0
KVP1 131544Z 05005KT 27/18 A3013 RMK A01 T02730176  RH  055%=      5-min Rain = 0
KVP1 131545Z 07004KT 27/18 A3013 RMK A01 T02730179  RH  056%=      5-min Rain = 0
KVP1 131546Z 05005KT 27/18 A3013 RMK A01 T02740180  RH  056%=      5-min Rain = 0
KVP1 131547Z 05008KT 28/18 A3013 RMK A01 T02760181  RH  056%=      5-min Rain = 0
KVP1 131548Z 08006KT 28/18 A3013 RMK A01 T02770180  RH  056%=      5-min Rain = 0
KVP1 131549Z 06008KT 28/18 A3013 RMK A01 T02780178  RH  055%=      5-min Rain = 0
KVP1 131550Z 06008KT 28/18 A3013 RMK A01 T02780177  RH  054%=      5-min Rain = 0
KVP1 131551Z 05005KT 28/18 A3013 RMK A01 T02770177  RH  054%=      5-min Rain = 0
KVP1 131552Z 06008KT 28/18 A3013 RMK A01 T02760178  RH  055%=      5-min Rain = 0
KVP1 131553Z 07006KT 28/18 A3013 RMK A01 T02760178  RH  055%=      5-min Rain = 0
KVP1 131554Z 06007KT 28/18 A3013 RMK A01 T02760179  RH  055%=      5-min Rain = 0
KVP1 131555Z 06004KT 28/18 A3013 RMK A01 T02780180  RH  055%=      5-min Rain = 0
KVP1 131556Z 06006KT 28/18 A3013 RMK A01 T02790180  RH  055%=      5-min Rain = 0
KVP1 131557Z 06008KT 28/18 A3013 RMK A01 T02800181  RH  055%=      5-min Rain = 0
KVP1 131558Z 05008KT 28/18 A3013 RMK A01 T02830182  RH  054%=      5-min Rain = 0
KVP1 131559Z 05005KT 28/18 A3013 RMK A01 T02840181  RH  053%=      5-min Rain = 0
KVP1 131600Z 03006KT 28/18 A3013 RMK A01 T02810181  RH  055%=      5-min Rain = 0
KVP1 131601Z 03006KT 28/18 A3013 RMK A01 T02810182  RH  055%=      5-min Rain = 0
KVP1 131602Z 07007KT 28/18 A3013 RMK A01 T02800182  RH  055%=      5-min Rain = 0
KVP1 131603Z 07011KT 29/18 A3013 RMK A01 T02850180  RH  053%=      5-min Rain = 0
KVP1 131604Z 07009KT 29/18 A3013 RMK A01 T02860178  RH  052%=      5-min Rain = 0
KVP1 131605Z 07007KT 28/18 A3013 RMK A01 T02820177  RH  053%=      5-min Rain = 0
KVP1 131606Z 10003KT 28/18 A3013 RMK A01 T02790176  RH  054%=      5-min Rain = 0
KVP1 131607Z 04005KT 28/18 A3013 RMK A01 T02770178  RH  055%=      5-min Rain = 0
KVP1 131608Z 04008KT 28/18 A3013 RMK A01 T02780179  RH  055%=      5-min Rain = 0
KVP1 131609Z 05010KT 28/18 A3013 RMK A01 T02800179  RH  054%=      5-min Rain = 0
KVP1 131610Z 05008KT 28/18 A3013 RMK A01 T02800179  RH  054%=      5-min Rain = 0
KVP1 131611Z 05006KT 28/18 A3013 RMK A01 T02810179  RH  054%=      5-min Rain = 0
KVP1 131612Z 06006KT 28/18 A3013 RMK A01 T02820180  RH  054%=      5-min Rain = 0
KVP1 131613Z 05005KT 28/18 A3013 RMK A01 T02820180  RH  054%=      5-min Rain = 0
KVP1 131614Z 05005KT 28/18 A3013 RMK A01 T02810181  RH  055%=      5-min Rain = 0
KVP1 131615Z 05006G11KT 28/18 A3013 RMK A01 T02810181  RH  054%=      5-min Rain = 0
KVP1 131616Z 07010KT 28/18 A3013 RMK A01 T02820181  RH  054%=      5-min Rain = 0
KVP1 131617Z 08007KT 29/18 A3013 RMK A01 T02870180  RH  053%=      5-min Rain = 0
KVP1 131618Z 08005KT 29/18 A3013 RMK A01 T02910181  RH  052%=      5-min Rain = 0
KVP1 131619Z 04008KT 29/18 A3013 RMK A01 T02940180  RH  050%=      5-min Rain = 0
KVP1 131620Z 04007KT 29/18 A3013 RMK A01 T02920179  RH  051%=      5-min Rain = 0
KVP1 131621Z 05005KT 29/18 A3013 RMK A01 T02860179  RH  052%=      5-min Rain = 0
KVP1 131622Z 07009KT 29/18 A3013 RMK A01 T02850181  RH  053%=      5-min Rain = 0
KVP1 131623Z 08010KT 29/18 A3013 RMK A01 T02910183  RH  052%=      5-min Rain = 0
KVP1 131624Z 08010KT 29/18 A3014 RMK A01 T02930182  RH  051%=      5-min Rain = 0
KVP1 131625Z 07009KT 29/18 A3014 RMK A01 T02920182  RH  052%=      5-min Rain = 0
KVP1 131626Z 06008KT 29/18 A3014 RMK A01 T02900182  RH  052%=      5-min Rain = 0
KVP1 131627Z 10006KT 29/18 A3014 RMK A01 T02860181  RH  053%=      5-min Rain = 0
KVP1 131628Z 12006KT 28/18 A3014 RMK A01 T02840180  RH  053%=      5-min Rain = 0
KVP1 131629Z 08004KT 28/18 A3014 RMK A01 T02830182  RH  054%=      5-min Rain = 0
KVP1 131630Z 05006KT 29/18 A3013 RMK A01 T02870184  RH  054%=      5-min Rain = 0
KVP1 131631Z 07006KT 29/18 A3014 RMK A01 T02910184  RH  053%=      5-min Rain = 0
KVP1 131632Z 06008KT 29/19 A3014 RMK A01 T02940185  RH  052%=      5-min Rain = 0
KVP1 131633Z 03005KT 30/18 A3013 RMK A01 T02950183  RH  051%=      5-min Rain = 0
KVP1 131634Z 06005KT 29/18 A3013 RMK A01 T02920183  RH  052%=      5-min Rain = 0
KVP1 131635Z 09006KT 29/19 A3014 RMK A01 T02940185  RH  052%=      5-min Rain = 0
KVP1 131636Z 08010KT 29/18 A3013 RMK A01 T02940184  RH  052%=      5-min Rain = 0
KVP1 131637Z 08009KT 29/18 A3014 RMK A01 T02940184  RH  052%=      5-min Rain = 0
KVP1 131638Z 08008KT 29/18 A3014 RMK A01 T02920183  RH  052%=      5-min Rain = 0
KVP1 131639Z 08006KT 29/19 A3014 RMK A01 T02910185  RH  053%=      5-min Rain = 0
KVP1 131640Z 07010KT 29/19 A3014 RMK A01 T02930185  RH  052%=      5-min Rain = 0
KVP1 131641Z 06008KT 29/18 A3014 RMK A01 T02930183  RH  052%=      5-min Rain = 0
KVP1 131642Z 09008KT 29/18 A3014 RMK A01 T02910184  RH  053%=      5-min Rain = 0
KVP1 131643Z 09006KT 29/18 A3014 RMK A01 T02910184  RH  053%=      5-min Rain = 0
KVP1 131644Z 07005KT 29/18 A3014 RMK A01 T02920184  RH  052%=      5-min Rain = 0
KVP1 131645Z 10009KT 29/18 A3014 RMK A01 T02930184  RH  052%=      5-min Rain = 0
KVP1 131646Z 09011KT 29/18 A3014 RMK A01 T02930184  RH  052%=      5-min Rain = 0
KVP1 131647Z 09011KT 30/18 A3014 RMK A01 T02950183  RH  051%=      5-min Rain = 0
KVP1 131648Z 10008KT 29/18 A3014 RMK A01 T02940182  RH  051%=      5-min Rain = 0
KVP1 131649Z 09008KT 29/18 A3014 RMK A01 T02910182  RH  052%=      5-min Rain = 0
KVP1 131650Z 09011KT 29/18 A3014 RMK A01 T02920183  RH  052%=      5-min Rain = 0
KVP1 131651Z 10008KT 29/18 A3014 RMK A01 T02940183  RH  051%=      5-min Rain = 0
KVP1 131652Z 10005KT 29/18 A3014 RMK A01 T02940183  RH  051%=      5-min Rain = 0
KVP1 131653Z 07007KT 30/18 A3014 RMK A01 T02960183  RH  051%=      5-min Rain = 0
KVP1 131654Z 06008G13KT 30/18 A3014 RMK A01 T02960184  RH  051%=      5-min Rain = 0
KVP1 131655Z 06010KT 30/18 A3014 RMK A01 T02980183  RH  050%=      5-min Rain = 0
KVP1 131656Z 06008KT 30/18 A3014 RMK A01 T02980182  RH  050%=      5-min Rain = 0
KVP1 131657Z 07010KT 30/18 A3014 RMK A01 T02960181  RH  050%=      5-min Rain = 0
KVP1 131658Z 08007KT 30/18 A3014 RMK A01 T02960181  RH  050%=      5-min Rain = 0
KVP1 131659Z 08004KT 29/18 A3014 RMK A01 T02940180  RH  050%=      5-min Rain = 0
KVP1 131700Z 09010KT 29/18 A3014 RMK A01 T02920181  RH  051%=      5-min Rain = 0
KVP1 131701Z 08010KT 30/18 A3014 RMK A01 T02950181  RH  050%=      5-min Rain = 0
KVP1 131702Z 04010KT 30/18 A3014 RMK A01 T02960182  RH  050%=      5-min Rain = 0
KVP1 131703Z 05010KT 30/18 A3014 RMK A01 T02970183  RH  050%=      5-min Rain = 0
KVP1 131704Z 06008KT 30/18 A3014 RMK A01 T03000183  RH  050%=      5-min Rain = 0
KVP1 131705Z 05006KT 30/18 A3014 RMK A01 T02990182  RH  049%=      5-min Rain = 0
KVP1 131706Z 05006KT 30/18 A3014 RMK A01 T02970182  RH  050%=      5-min Rain = 0
KVP1 131707Z 03005KT 30/18 A3014 RMK A01 T02960182  RH  050%=      5-min Rain = 0
KVP1 131708Z 03008KT 30/18 A3014 RMK A01 T02990184  RH  050%=      5-min Rain = 0
KVP1 131709Z 07009KT 30/18 A3014 RMK A01 T03020183  RH  049%=      5-min Rain = 0
KVP1 131710Z 08007KT 30/18 A3014 RMK A01 T02990180  RH  049%=      5-min Rain = 0
KVP1 131711Z 05007G12KT 30/18 A3014 RMK A01 T02960181  RH  050%=      5-min Rain = 0
KVP1 131712Z 07011KT 30/18 A3014 RMK A01 T02970180  RH  049%=      5-min Rain = 0
KVP1 131713Z 05009KT 30/18 A3014 RMK A01 T02990179  RH  049%=      5-min Rain = 0
KVP1 131714Z 09010KT 30/18 A3014 RMK A01 T03010179  RH  048%=      5-min Rain = 0
KVP1 131715Z 10009KT 30/18 A3014 RMK A01 T03020178  RH  047%=      5-min Rain = 0
KVP1 131716Z 13007KT 30/18 A3014 RMK A01 T03000177  RH  047%=      5-min Rain = 0
KVP1 131717Z 10006KT 30/18 A3014 RMK A01 T03000177  RH  048%=      5-min Rain = 0
KVP1 131718Z 10007KT 30/18 A3014 RMK A01 T02990179  RH  048%=      5-min Rain = 0
KVP1 131719Z 10008KT 30/18 A3014 RMK A01 T03040182  RH  048%=      5-min Rain = 0
KVP1 131720Z 08008KT 31/18 A3014 RMK A01 T03080182  RH  047%=      5-min Rain = 0
KVP1 131721Z 08009G14KT 30/18 A3013 RMK A01 T03040181  RH  048%=      5-min Rain = 0
KVP1 131722Z 08009KT 31/18 A3014 RMK A01 T03060181  RH  047%=      5-min Rain = 0
KVP1 131723Z 07008KT 31/18 A3014 RMK A01 T03070180  RH  047%=      5-min Rain = 0
KVP1 131724Z 05009KT 31/18 A3014 RMK A01 T03060179  RH  047%=      5-min Rain = 0
KVP1 131725Z 05005KT 30/18 A3014 RMK A01 T03020178  RH  047%=      5-min Rain = 0
KVP1 131726Z 06006KT 30/18 A3014 RMK A01 T02980177  RH  048%=      5-min Rain = 0
KVP1 131727Z 07007KT 30/18 A3014 RMK A01 T02960178  RH  049%=      5-min Rain = 0
KVP1 131728Z 05005KT 30/18 A3013 RMK A01 T02980178  RH  049%=      5-min Rain = 0
KVP1 131729Z 07006KT 30/18 A3013 RMK A01 T02980179  RH  049%=      5-min Rain = 0
KVP1 131730Z 08005G10KT 30/18 A3013 RMK A01 T03030181  RH  048%=      5-min Rain = 0
KVP1 131731Z 07006G11KT 31/18 A3013 RMK A01 T03080181  RH  047%=      5-min Rain = 0
KVP1 131732Z 05010KT 31/18 A3013 RMK A01 T03120181  RH  046%=      5-min Rain = 0
KVP1 131733Z 04010KT 31/18 A3013 RMK A01 T03130182  RH  046%=      5-min Rain = 0
KVP1 131734Z 08008KT 31/18 A3013 RMK A01 T03110183  RH  046%=      5-min Rain = 0
KVP1 131735Z 09006KT 31/18 A3013 RMK A01 T03110182  RH  046%=      5-min Rain = 0
KVP1 131736Z 10005KT 31/18 A3013 RMK A01 T03090181  RH  046%=      5-min Rain = 0
KVP1 131737Z 09009KT 31/18 A3013 RMK A01 T03090181  RH  046%=      5-min Rain = 0
KVP1 131738Z 09009KT 31/18 A3013 RMK A01 T03090181  RH  046%=      5-min Rain = 0
KVP1 131739Z 10012KT 31/18 A3013 RMK A01 T03080182  RH  047%=      5-min Rain = 0
KVP1 131740Z 10010KT 31/18 A3013 RMK A01 T03090180  RH  046%=      5-min Rain = 0
KVP1 131741Z 09004KT 31/18 A3013 RMK A01 T03080180  RH  046%=      5-min Rain = 0
KVP1 131742Z 09008G14KT 31/18 A3013 RMK A01 T03060180  RH  047%=      5-min Rain = 0
KVP1 131743Z 08011KT 31/18 A3013 RMK A01 T03080181  RH  047%=      5-min Rain = 0
KVP1 131744Z 08006KT 31/18 A3013 RMK A01 T03090180  RH  046%=      5-min Rain = 0
KVP1 131745Z 07011KT 31/18 A3013 RMK A01 T03060179  RH  047%=      5-min Rain = 0
KVP1 131746Z 08010KT 31/18 A3013 RMK A01 T03050179  RH  047%=      5-min Rain = 0
KVP1 131747Z 09010KT 31/18 A3013 RMK A01 T03060178  RH  046%=      5-min Rain = 0
KVP1 131748Z 08010KT 31/18 A3013 RMK A01 T03090181  RH  046%=      5-min Rain = 0
KVP1 131749Z 07006KT 31/18 A3013 RMK A01 T03110180  RH  046%=      5-min Rain = 0
KVP1 131750Z 05006KT 31/18 A3013 RMK A01 T03100178  RH  045%=      5-min Rain = 0
KVP1 131751Z 02006KT 31/18 A3013 RMK A01 T03080181  RH  046%=      5-min Rain = 0
KVP1 131752Z 01004KT 31/18 A3013 RMK A01 T03090181  RH  046%=      5-min Rain = 0
KVP1 131753Z 06005KT 31/18 A3013 RMK A01 T03090180  RH  046%=      5-min Rain = 0
KVP1 131754Z 09008KT 31/18 A3013 RMK A01 T03090177  RH  045%=      5-min Rain = 0
KVP1 131755Z 06010KT 31/18 A3013 RMK A01 T03110177  RH  045%=      5-min Rain = 0
KVP1 131756Z 07009KT 31/18 A3012 RMK A01 T03120177  RH  044%=      5-min Rain = 0
KVP1 131757Z 10009KT 32/18 A3013 RMK A01 T03160178  RH  044%=      5-min Rain = 0
KVP1 131758Z 07010KT 32/18 A3013 RMK A01 T03190177  RH  043%=      5-min Rain = 0
KVP1 131759Z 07006KT 32/18 A3013 RMK A01 T03190176  RH  042%=      5-min Rain = 0
KVP1 131800Z 08010KT 32/18 A3013 RMK A01 T03180177  RH  043%=      5-min Rain = 0
KVP1 131801Z 08012KT 32/18 A3013 RMK A01 T03190176  RH  042%=      5-min Rain = 0
KVP1 131802Z 07012G18KT 32/18 A3012 RMK A01 T03180177  RH  043%=      5-min Rain = 0
KVP1 131803Z 05009KT 32/18 A3013 RMK A01 T03200177  RH  043%=      5-min Rain = 0
KVP1 131804Z 07008KT 32/18 A3013 RMK A01 T03210177  RH  042%=      5-min Rain = 0
KVP1 131805Z 09008G13KT 33/18 A3012 RMK A01 T03250178  RH  042%=      5-min Rain = 0
KVP1 131806Z 10008KT 32/18 A3013 RMK A01 T03240176  RH  041%=      5-min Rain = 0
KVP1 131807Z 09008KT 32/18 A3013 RMK A01 T03180176  RH  043%=      5-min Rain = 0
KVP1 131808Z 07009G14KT 32/18 A3012 RMK A01 T03170176  RH  043%=      5-min Rain = 0
KVP1 131809Z 06012KT 32/18 A3012 RMK A01 T03190177  RH  043%=      5-min Rain = 0
KVP1 131810Z 06011KT 32/18 A3012 RMK A01 T03220175  RH  042%=      5-min Rain = 0
KVP1 131811Z 07012KT 32/18 A3012 RMK A01 T03240177  RH  042%=      5-min Rain = 0
KVP1 131812Z 07012KT 33/18 A3012 RMK A01 T03250175  RH  041%=      5-min Rain = 0
KVP1 131813Z 05009KT 32/17 A3012 RMK A01 T03210174  RH  041%=      5-min Rain = 0
KVP1 131814Z 05006KT 32/17 A3013 RMK A01 T03170172  RH  042%=      5-min Rain = 0
KVP1 131815Z 06005KT 31/17 A3013 RMK A01 T03110172  RH  043%=      5-min Rain = 0
KVP1 131816Z 06010KT 31/17 A3012 RMK A01 T03090173  RH  044%=      5-min Rain = 0
KVP1 131817Z 07010KT 31/17 A3012 RMK A01 T03140174  RH  043%=      5-min Rain = 0
KVP1 131818Z 06012KT 32/18 A3012 RMK A01 T03170176  RH  043%=      5-min Rain = 0
KVP1 131819Z 06012KT 32/18 A3012 RMK A01 T03190177  RH  043%=      5-min Rain = 0
KVP1 131820Z 06011KT 32/18 A3012 RMK A01 T03220177  RH  042%=      5-min Rain = 0
KVP1 131821Z 08012KT 32/18 A3012 RMK A01 T03220177  RH  042%=      5-min Rain = 0
KVP1 131822Z 06011KT 32/18 A3012 RMK A01 T03220177  RH  042%=      5-min Rain = 0
KVP1 131823Z 08010KT 32/18 A3012 RMK A01 T03190176  RH  043%=      5-min Rain = 0
KVP1 131824Z 09011KT 32/18 A3012 RMK A01 T03180176  RH  043%=      5-min Rain = 0
KVP1 131825Z 09010KT 32/17 A3012 RMK A01 T03150174  RH  043%=      5-min Rain = 0
KVP1 131826Z 10009KT 31/17 A3012 RMK A01 T03130174  RH  043%=      5-min Rain = 0
KVP1 131827Z 08009KT 31/17 A3012 RMK A01 T03100174  RH  044%=      5-min Rain = 0
KVP1 131828Z 08007KT 31/17 A3012 RMK A01 T03100174  RH  044%=      5-min Rain = 0
KVP1 131829Z 04007KT 31/17 A3012 RMK A01 T03080171  RH  044%=      5-min Rain = 0
KVP1 131830Z 06010KT 31/17 A3012 RMK A01 T03080170  RH  044%=      5-min Rain = 0
KVP1 131831Z 09016KT 31/17 A3012 RMK A01 T03120174  RH  043%=      5-min Rain = 0
KVP1 131832Z 07015KT 32/17 A3012 RMK A01 T03200174  RH  042%=      5-min Rain = 0
KVP1 131833Z 07014KT 32/17 A3012 RMK A01 T03190172  RH  041%=      5-min Rain = 0
KVP1 131834Z 07008G15KT 32/17 A3012 RMK A01 T03150171  RH  042%=      5-min Rain = 0
KVP1 131835Z 08010KT 31/17 A3012 RMK A01 T03140173  RH  043%=      5-min Rain = 0
KVP1 131836Z 09010KT 32/17 A3012 RMK A01 T03180173  RH  042%=      5-min Rain = 0
KVP1 131837Z 09015KT 33/18 A3012 RMK A01 T03260176  RH  041%=      5-min Rain = 0
KVP1 131838Z 08016KT 33/18 A3012 RMK A01 T03270175  RH  040%=      5-min Rain = 0
KVP1 131839Z 08011G17KT 32/17 A3012 RMK A01 T03240173  RH  041%=      5-min Rain = 0
KVP1 131840Z 07009KT 32/17 A3012 RMK A01 T03230174  RH  041%=      5-min Rain = 0
KVP1 131841Z 09010KT 33/18 A3012 RMK A01 T03250175  RH  041%=      5-min Rain = 0
KVP1 131842Z 08011KT 33/17 A3012 RMK A01 T03280173  RH  040%=      5-min Rain = 0
KVP1 131843Z 08012KT 33/17 A3012 RMK A01 T03270173  RH  040%=      5-min Rain = 0
KVP1 131844Z 09010KT 33/17 A3012 RMK A01 T03250171  RH  040%=      5-min Rain = 0
KVP1 131845Z 09007KT 32/17 A3012 RMK A01 T03230172  RH  041%=      5-min Rain = 0
KVP1 131846Z 06008G13KT 32/17 A3012 RMK A01 T03200171  RH  041%=      5-min Rain = 0
KVP1 131847Z 04011KT 32/17 A3012 RMK A01 T03210172  RH  041%=      5-min Rain = 0
KVP1 131848Z 04010KT 32/17 A3012 RMK A01 T03240171  RH  040%=      5-min Rain = 0
KVP1 131849Z 06014KT 32/17 A3012 RMK A01 T03220173  RH  041%=      5-min Rain = 0
KVP1 131850Z 07010KT 32/17 A3012 RMK A01 T03210173  RH  041%=      5-min Rain = 0
KVP1 131851Z 05006KT 32/17 A3012 RMK A01 T03180173  RH  042%=      5-min Rain = 0
KVP1 131852Z 04010KT 32/18 A3012 RMK A01 T03200175  RH  042%=      5-min Rain = 0
KVP1 131853Z 04008KT 32/18 A3012 RMK A01 T03230175  RH  041%=      5-min Rain = 0
KVP1 131854Z 04006KT 33/17 A3012 RMK A01 T03260174  RH  040%=      5-min Rain = 0
KVP1 131855Z 04006KT 32/17 A3012 RMK A01 T03230173  RH  041%=      5-min Rain = 0
KVP1 131856Z 08010KT 32/17 A3012 RMK A01 T03240174  RH  041%=      5-min Rain = 0
KVP1 131857Z 07007KT 33/17 A3012 RMK A01 T03250173  RH  040%=      5-min Rain = 0
KVP1 131858Z 04010G18KT 33/18 A3012 RMK A01 T03290176  RH  040%=      5-min Rain = 0
KVP1 131859Z 04013KT 33/18 A3012 RMK A01 T03320175  RH  039%=      5-min Rain = 0
KVP1 131900Z 05011KT 33/17 A3012 RMK A01 T03330174  RH  039%=      5-min Rain = 0
KVP1 131901Z 06012KT 33/17 A3012 RMK A01 T03260171  RH  040%=      5-min Rain = 0
KVP1 131902Z 08009KT 32/17 A3012 RMK A01 T03220172  RH  041%=      5-min Rain = 0
KVP1 131903Z 07010KT 33/17 A3012 RMK A01 T03260173  RH  040%=      5-min Rain = 0
KVP1 131904Z 04008KT 33/17 A3012 RMK A01 T03260171  RH  040%=      5-min Rain = 0
KVP1 131905Z 05005KT 32/17 A3012 RMK A01 T03240171  RH  040%=      5-min Rain = 0
KVP1 131906Z 07010KT 32/17 A3011 RMK A01 T03240173  RH  040%=      5-min Rain = 0
KVP1 131907Z 05015KT 33/17 A3011 RMK A01 T03280173  RH  040%=      5-min Rain = 0
KVP1 131908Z 06015KT 33/17 A3011 RMK A01 T03260172  RH  040%=      5-min Rain = 0
KVP1 131909Z 06010KT 33/17 A3012 RMK A01 T03260172  RH  040%=      5-min Rain = 0
KVP1 131910Z 07008KT 33/17 A3012 RMK A01 T03250172  RH  040%=      5-min Rain = 0
KVP1 131911Z 07006KT 32/17 A3012 RMK A01 T03230173  RH  041%=      5-min Rain = 0
KVP1 131912Z 06004KT 32/17 A3012 RMK A01 T03230173  RH  041%=      5-min Rain = 0
KVP1 131913Z 03008G13KT 33/17 A3012 RMK A01 T03250174  RH  040%=      5-min Rain = 0
KVP1 131914Z 05011KT 33/17 A3012 RMK A01 T03280173  RH  040%=      5-min Rain = 0
KVP1 131915Z 05007KT 33/17 A3012 RMK A01 T03280173  RH  040%=      5-min Rain = 0
KVP1 131916Z 06012KT 33/17 A3012 RMK A01 T03280174  RH  040%=      5-min Rain = 0
KVP1 131917Z 07011KT 33/17 A3012 RMK A01 T03290173  RH  040%=      5-min Rain = 0
KVP1 131918Z 07008KT 33/17 A3012 RMK A01 T03280173  RH  040%=      5-min Rain = 0
KVP1 131919Z 07010G15KT 33/17 A3012 RMK A01 T03260172  RH  040%=      5-min Rain = 0
KVP1 131920Z 08005KT 33/17 A3012 RMK A01 T03250172  RH  040%=      5-min Rain = 0
KVP1 131921Z 05009KT 33/18 A3011 RMK A01 T03300175  RH  040%=      5-min Rain = 0
KVP1 131922Z 05008KT 34/17 A3012 RMK A01 T03360174  RH  038%=      5-min Rain = 0
KVP1 131923Z 07011G18KT 34/17 A3011 RMK A01 T03390174  RH  038%=      5-min Rain = 0
KVP1 131924Z 06011KT 34/17 A3012 RMK A01 T03410174  RH  037%=      5-min Rain = 0
KVP1 131925Z 06011KT 34/17 A3011 RMK A01 T03390169  RH  036%=      5-min Rain = 0
KVP1 131926Z 07012KT 34/17 A3011 RMK A01 T03350169  RH  037%=      5-min Rain = 0
KVP1 131927Z 08010KT 33/17 A3012 RMK A01 T03330169  RH  037%=      5-min Rain = 0
KVP1 131928Z 07009KT 33/17 A3012 RMK A01 T03290166  RH  038%=      5-min Rain = 0
KVP1 131929Z 08008KT 32/17 A3011 RMK A01 T03240166  RH  039%=      5-min Rain = 0
KVP1 131930Z 08007KT 33/17 A3011 RMK A01 T03260169  RH  039%=      5-min Rain = 0
KVP1 131931Z 06008KT 33/17 A3011 RMK A01 T03310170  RH  038%=      5-min Rain = 0
KVP1 131932Z 09014KT 34/17 A3011 RMK A01 T03370171  RH  037%=      5-min Rain = 0
KVP1 131933Z 08011G16KT 34/17 A3011 RMK A01 T03370168  RH  037%=      5-min Rain = 0
KVP1 131934Z 08010KT 33/17 A3011 RMK A01 T03300167  RH  038%=      5-min Rain = 0
KVP1 131935Z 07011KT 33/17 A3011 RMK A01 T03290169  RH  038%=      5-min Rain = 0
KVP1 131936Z 07013KT 33/17 A3011 RMK A01 T03330171  RH  038%=      5-min Rain = 0
KVP1 131937Z 08010KT 33/17 A3011 RMK A01 T03340165  RH  037%=      5-min Rain = 0
KVP1 131938Z 10009KT 33/17 A3011 RMK A01 T03280167  RH  038%=      5-min Rain = 0
KVP1 131939Z 07014KT 33/17 A3011 RMK A01 T03340170  RH  038%=      5-min Rain = 0
KVP1 131940Z 08010G16KT 34/17 A3011 RMK A01 T03390169  RH  036%=      5-min Rain = 0
KVP1 131941Z 06009KT 34/17 A3011 RMK A01 T03370169  RH  037%=      5-min Rain = 0
KVP1 131942Z 07009KT 34/17 A3011 RMK A01 T03390169  RH  036%=      5-min Rain = 0
KVP1 131943Z 07011KT 34/17 A3011 RMK A01 T03410167  RH  035%=      5-min Rain = 0
KVP1 131944Z 04011KT 34/17 A3011 RMK A01 T03390168  RH  036%=      5-min Rain = 0
KVP1 131945Z 06007KT 34/17 A3011 RMK A01 T03350167  RH  037%=      5-min Rain = 0
KVP1 131946Z 05006KT 33/17 A3011 RMK A01 T03320168  RH  037%=      5-min Rain = 0
KVP1 131947Z 09009G15KT 34/17 A3011 RMK A01 T03350170  RH  037%=      5-min Rain = 0
KVP1 131948Z 10012KT 34/17 A3011 RMK A01 T03370169  RH  037%=      5-min Rain = 0
KVP1 131949Z 07014G19KT 34/17 A3011 RMK A01 T03360169  RH  037%=      5-min Rain = 0
KVP1 131950Z 11009KT 33/17 A3011 RMK A01 T03300167  RH  038%=      5-min Rain = 0
KVP1 131951Z 09010KT 33/17 A3011 RMK A01 T03280168  RH  038%=      5-min Rain = 0
KVP1 131952Z 08011KT 33/17 A3011 RMK A01 T03280168  RH  038%=      5-min Rain = 0
KVP1 131953Z 08012KT 33/17 A3011 RMK A01 T03290168  RH  038%=      5-min Rain = 0
KVP1 131954Z 07010KT 33/17 A3011 RMK A01 T03280169  RH  039%=      5-min Rain = 0
KVP1 131955Z 07010KT 32/17 A3011 RMK A01 T03240169  RH  040%=      5-min Rain = 0
KVP1 131956Z 06012KT 32/17 A3011 RMK A01 T03230170  RH  040%=      5-min Rain = 0
KVP1 131957Z 06012KT 33/17 A3011 RMK A01 T03270172  RH  040%=      5-min Rain = 0
KVP1 131958Z 07010KT 33/17 A3011 RMK A01 T03320171  RH  038%=      5-min Rain = 0
KVP1 131959Z 04009KT 33/17 A3011 RMK A01 T03300171  RH  039%=      5-min Rain = 0
KVP1 132000Z 05008KT 33/17 A3011 RMK A01 T03280170  RH  039%=      5-min Rain = 0
KVP1 132001Z 07011KT 33/17 A3011 RMK A01 T03260169  RH  039%=      5-min Rain = 0
KVP1 132002Z 07008KT 32/17 A3011 RMK A01 T03220167  RH  039%=      5-min Rain = 0
KVP1 132003Z 08011KT 32/17 A3011 RMK A01 T03200166  RH  040%=      5-min Rain = 0
KVP1 132004Z 08011KT 32/17 A301 RMK A01 T03190165  RH  039%=      5-min Rain = 0
KVP1 132005Z 08007KT 32/17 A301 RMK A01 T03180166  RH  040%=      5-min Rain = 0
KVP1 132006Z 07007KT 32/17 A301 RMK A01 T03210167  RH  040%=      5-min Rain = 0
KVP1 132007Z 07008KT 32/17 A301 RMK A01 T03240168  RH  039%=      5-min Rain = 0
KVP1 132008Z 06010KT 33/17 A301 RMK A01 T03300171  RH  039%=      5-min Rain = 0
KVP1 132009Z 09015KT 34/17 A301 RMK A01 T03360171  RH  037%=      5-min Rain = 0
KVP1 132010Z 08010KT 33/17 A301 RMK A01 T03330169  RH  038%=      5-min Rain = 0
KVP1 132011Z 09009KT 33/17 A301 RMK A01 T03330169  RH  038%=      5-min Rain = 0
KVP1 132012Z 09011KT 33/17 A301 RMK A01 T03300168  RH  038%=      5-min Rain = 0
KVP1 132013Z 08016KT 33/17 A301 RMK A01 T03310170  RH  038%=      5-min Rain = 0
KVP1 132014Z 08015KT 33/17 A301 RMK A01 T03320170  RH  038%=      5-min Rain = 0
KVP1 132015Z 07016KT 33/17 A301 RMK A01 T03310170  RH  038%=      5-min Rain = 0
KVP1 132016Z 07013KT 33/17 A301 RMK A01 T03300169  RH  038%=      5-min Rain = 0
KVP1 132017Z 08012G18KT 33/17 A301 RMK A01 T03300170  RH  038%=      5-min Rain = 0
KVP1 132018Z 08009KT 33/17 A301 RMK A01 T03290170  RH  039%=      5-min Rain = 0
KVP1 132019Z 04009KT 33/17 A301 RMK A01 T03280169  RH  039%=      5-min Rain = 0
KVP1 132020Z 04011KT 33/17 A301 RMK A01 T03280169  RH  038%=      5-min Rain = 0
KVP1 132021Z 03011KT 33/17 A301 RMK A01 T03300169  RH  038%=      5-min Rain = 0
KVP1 132022Z 01009KT 33/17 A301 RMK A01 T03290168  RH  038%=      5-min Rain = 0
KVP1 132023Z 05012G18KT 33/17 A301 RMK A01 T03300169  RH  038%=      5-min Rain = 0
KVP1 132024Z 07013G18KT 33/17 A301 RMK A01 T03340170  RH  037%=      5-min Rain = 0
KVP1 132025Z 06010KT 34/17 A301 RMK A01 T03360169  RH  037%=      5-min Rain = 0
KVP1 132026Z 07010KT 34/17 A301 RMK A01 T03360169  RH  037%=      5-min Rain = 0
KVP1 132027Z 06008KT 34/17 A301 RMK A01 T03380168  RH  036%=      5-min Rain = 0
KVP1 132028Z 06006KT 34/17 A301 RMK A01 T03360166  RH  036%=      5-min Rain = 0
KVP1 132029Z 07009KT 33/17 A301 RMK A01 T03320165  RH  037%=      5-min Rain = 0
KVP1 132030Z 08009KT 34/17 A301 RMK A01 T03350168  RH  037%=      5-min Rain = 0
KVP1 132031Z 06009KT 33/17 A301 RMK A01 T03340168  RH  037%=      5-min Rain = 0
KVP1 132032Z 05010KT 33/17 A3009 RMK A01 T03330169  RH  038%=      5-min Rain = 0
KVP1 132033Z 07013KT 33/17 A3009 RMK A01 T03330171  RH  038%=      5-min Rain = 0
KVP1 132034Z 09010KT 34/17 A3009 RMK A01 T03350172  RH  038%=      5-min Rain = 0
KVP1 132035Z 08015G20KT 34/18 A3009 RMK A01 T03350176  RH  039%=      5-min Rain = 0
KVP1 132036Z 09013KT 34/18 A3009 RMK A01 T03420179  RH  038%=      5-min Rain = 0
KVP1 132037Z 07011KT 34/18 A3009 RMK A01 T03430180  RH  038%=      5-min Rain = 0
KVP1 132038Z 06012KT 34/18 A3009 RMK A01 T03430175  RH  037%=      5-min Rain = 0
KVP1 132039Z 04009KT 34/17 A3009 RMK A01 T03370173  RH  038%=      5-min Rain = 0
KVP1 132040Z 05009KT 33/17 A3009 RMK A01 T03320171  RH  038%=      5-min Rain = 0
KVP1 132041Z 07012KT 33/17 A3009 RMK A01 T03260170  RH  039%=      5-min Rain = 0
KVP1 132042Z 06012KT 32/17 A3009 RMK A01 T03220168  RH  040%=      5-min Rain = 0
KVP1 132043Z 06007KT 32/17 A301 RMK A01 T03210169  RH  040%=      5-min Rain = 0
KVP1 132044Z 06009KT 32/17 A301 RMK A01 T03240170  RH  040%=      5-min Rain = 0
KVP1 132045Z 06009G15KT 33/17 A301 RMK A01 T03270172  RH  040%=      5-min Rain = 0
KVP1 132046Z 04014G20KT 33/18 A3009 RMK A01 T03270175  RH  040%=      5-min Rain = 0
KVP1 132047Z 05009KT 33/18 A301 RMK A01 T03290175  RH  040%=      5-min Rain = 0
KVP1 132048Z 08009G14KT 33/18 A3009 RMK A01 T03330176  RH  039%=      5-min Rain = 0
KVP1 132049Z 07008KT 34/18 A3009 RMK A01 T03360175  RH  038%=      5-min Rain = 0
KVP1 132050Z 07008KT 34/18 A3009 RMK A01 T03350175  RH  039%=      5-min Rain = 0
KVP1 132051Z 06008KT 33/18 A3009 RMK A01 T03290175  RH  040%=      5-min Rain = 0
KVP1 132052Z 08015G20KT 33/18 A3009 RMK A01 T03260176  RH  041%=      5-min Rain = 0
KVP1 132053Z 09014G19KT 33/18 A3009 RMK A01 T03290178  RH  041%=      5-min Rain = 0
KVP1 132054Z 08012KT 34/18 A3009 RMK A01 T03370180  RH  039%=      5-min Rain = 0
KVP1 132055Z 06013KT 34/18 A3009 RMK A01 T03380177  RH  038%=      5-min Rain = 0
KVP1 132056Z 06012KT 33/18 A3009 RMK A01 T03340175  RH  039%=      5-min Rain = 0
KVP1 132057Z 07012KT 33/17 A3009 RMK A01 T03300174  RH  040%=      5-min Rain = 0
KVP1 132058Z 07012KT 32/17 A3009 RMK A01 T03240173  RH  040%=      5-min Rain = 0
KVP1 132059Z 07012KT 32/17 A3009 RMK A01 T03210172  RH  041%=      5-min Rain = 0
KVP1 132100Z 08010KT 32/17 A3009 RMK A01 T03190172  RH  042%=      5-min Rain = 0
KVP1 132101Z 09012KT 32/17 A3009 RMK A01 T03190172  RH  041%=      5-min Rain = 0
KVP1 132102Z 08008KT 32/17 A3009 RMK A01 T03230172  RH  041%=      5-min Rain = 0
KVP1 132103Z 06008KT 33/18 A3009 RMK A01 T03300175  RH  040%=      5-min Rain = 0
KVP1 132104Z 07007KT 33/18 A3009 RMK A01 T03330175  RH  039%=      5-min Rain = 0
KVP1 132105Z 07012KT 33/18 A3009 RMK A01 T03340177  RH  039%=      5-min Rain = 0
KVP1 132106Z 09011KT 34/18 A3009 RMK A01 T03370176  RH  038%=      5-min Rain = 0
KVP1 132107Z 09012KT 34/18 A3009 RMK A01 T03350176  RH  039%=      5-min Rain = 0
KVP1 132108Z 09012KT 34/18 A3009 RMK A01 T03390178  RH  038%=      5-min Rain = 0
KVP1 132109Z 09010KT 34/18 A3009 RMK A01 T03410177  RH  038%=      5-min Rain = 0
KVP1 132110Z 07017KT 34/18 A3009 RMK A01 T03420178  RH  038%=      5-min Rain = 0
KVP1 132111Z 08011G16KT 34/18 A3009 RMK A01 T03410175  RH  037%=      5-min Rain = 0
KVP1 132112Z 08013KT 34/18 A3009 RMK A01 T03400175  RH  038%=      5-min Rain = 0
KVP1 132113Z 08014KT 34/17 A3009 RMK A01 T03380174  RH  038%=      5-min Rain = 0
KVP1 132114Z 07012KT 34/17 A3009 RMK A01 T03370174  RH  038%=      5-min Rain = 0
KVP1 132115Z 07013KT 34/17 A3009 RMK A01 T03390173  RH  037%=      5-min Rain = 0
KVP1 132116Z 06009KT 34/17 A3009 RMK A01 T03380170  RH  037%=      5-min Rain = 0
KVP1 132117Z 06008G15KT 33/17 A3009 RMK A01 T03330170  RH  038%=      5-min Rain = 0
KVP1 132118Z 07010KT 33/17 A3009 RMK A01 T03330171  RH  038%=      5-min Rain = 0
KVP1 132119Z 07010KT 34/17 A3009 RMK A01 T03360169  RH  037%=      5-min Rain = 0
KVP1 132120Z 06010KT 34/17 A3009 RMK A01 T03370168  RH  036%=      5-min Rain = 0
KVP1 132121Z 05008KT 34/17 A3009 RMK A01 T03400165  RH  035%=      5-min Rain = 0
KVP1 132122Z 04008G13KT 34/16 A3009 RMK A01 T03350163  RH  036%=      5-min Rain = 0
KVP1 132123Z 06012KT 33/17 A3008 RMK A01 T03320167  RH  037%=      5-min Rain = 0
KVP1 132124Z 07010KT 33/17 A3008 RMK A01 T03320168  RH  038%=      5-min Rain = 0
KVP1 132125Z 09012G17KT 33/17 A3008 RMK A01 T03330172  RH  038%=      5-min Rain = 0
KVP1 132126Z 10013KT 34/17 A3008 RMK A01 T03390173  RH  037%=      5-min Rain = 0
KVP1 132127Z 10012KT 33/17 A3008 RMK A01 T03340171  RH  038%=      5-min Rain = 0
KVP1 132128Z 10009KT 33/17 A3008 RMK A01 T03340171  RH  038%=      5-min Rain = 0
KVP1 132129Z 08007KT 33/17 A3008 RMK A01 T03280169  RH  039%=      5-min Rain = 0
KVP1 132130Z 09013KT 33/17 A3008 RMK A01 T03300169  RH  038%=      5-min Rain = 0
KVP1 132131Z 10008KT 33/17 A3008 RMK A01 T03310168  RH  038%=      5-min Rain = 0
KVP1 132132Z 10004KT 33/17 A3008 RMK A01 T03310168  RH  038%=      5-min Rain = 0
KVP1 132133Z 08013KT 33/17 A3008 RMK A01 T03310169  RH  038%=      5-min Rain = 0
KVP1 132134Z 08014KT 33/17 A3008 RMK A01 T03320168  RH  038%=      5-min Rain = 0
KVP1 132135Z 07013KT 33/17 A3008 RMK A01 T03320169  RH  038%=      5-min Rain = 0
KVP1 132136Z 05009KT 33/17 A3008 RMK A01 T03320170  RH  038%=      5-min Rain = 0
KVP1 132137Z 07007KT 33/17 A3008 RMK A01 T03310170  RH  038%=      5-min Rain = 0
KVP1 132138Z 08011G16KT 33/17 A3008 RMK A01 T03310171  RH  039%=      5-min Rain = 0
KVP1 132139Z 09015KT 33/17 A3008 RMK A01 T03290171  RH  039%=      5-min Rain = 0
KVP1 132140Z 09014KT 33/17 A3008 RMK A01 T03320172  RH  039%=      5-min Rain = 0
KVP1 132141Z 08014KT 34/17 A3008 RMK A01 T03390173  RH  037%=      5-min Rain = 0
KVP1 132142Z 09011KT 34/17 A3008 RMK A01 T03370170  RH  037%=      5-min Rain = 0
KVP1 132143Z 09014KT 33/17 A3008 RMK A01 T03300170  RH  038%=      5-min Rain = 0
KVP1 132144Z 10013KT 33/17 A3008 RMK A01 T03320168  RH  038%=      5-min Rain = 0
KVP1 132145Z 09011KT 33/17 A3008 RMK A01 T03310168  RH  038%=      5-min Rain = 0
KVP1 132146Z 12011KT 33/17 A3008 RMK A01 T03300168  RH  038%=      5-min Rain = 0
KVP1 132147Z 13009KT 33/17 A3008 RMK A01 T03310168  RH  038%=      5-min Rain = 0
KVP1 132148Z 10011KT 33/17 A3008 RMK A01 T03320169  RH  038%=      5-min Rain = 0
KVP1 132149Z 10007KT 33/17 A3008 RMK A01 T03310167  RH  038%=      5-min Rain = 0
KVP1 132150Z 11009KT 33/17 A3008 RMK A01 T03320169  RH  038%=      5-min Rain = 0
KVP1 132151Z 09012KT 34/17 A3008 RMK A01 T03360171  RH  038%=      5-min Rain = 0
KVP1 132152Z 07012KT 34/17 A3008 RMK A01 T03380169  RH  037%=      5-min Rain = 0
KVP1 132153Z 06009KT 34/17 A3008 RMK A01 T03350167  RH  037%=      5-min Rain = 0
KVP1 132154Z 07008KT 33/17 A3008 RMK A01 T03330168  RH  037%=      5-min Rain = 0
KVP1 132155Z 08010G15KT 33/17 A3008 RMK A01 T03340168  RH  037%=      5-min Rain = 0
KVP1 132156Z 09006KT 34/17 A3008 RMK A01 T03350166  RH  036%=      5-min Rain = 0
KVP1 132157Z 07006KT 33/17 A3008 RMK A01 T03340165  RH  036%=      5-min Rain = 0
KVP1 132158Z 10009KT 33/17 A3008 RMK A01 T03320165  RH  037%=      5-min Rain = 0
KVP1 132159Z 09012KT 33/17 A3008 RMK A01 T03310168  RH  038%=      5-min Rain = 0
KVP1 132200Z 07011KT 33/17 A3008 RMK A01 T03310168  RH  038%=      5-min Rain = 0
KVP1 132201Z 09014KT 33/17 A3008 RMK A01 T03310170  RH  038%=      5-min Rain = 0
KVP1 132202Z 09017KT 33/17 A3008 RMK A01 T03320170  RH  038%=      5-min Rain = 0
KVP1 132203Z 08011KT 33/17 A3008 RMK A01 T03330169  RH  038%=      5-min Rain = 0
KVP1 132204Z 11012KT 33/17 A3008 RMK A01 T03340170  RH  038%=      5-min Rain = 0
KVP1 132205Z 11011KT 33/17 A3008 RMK A01 T03340170  RH  038%=      5-min Rain = 0
KVP1 132206Z 13010KT 33/17 A3008 RMK A01 T03320168  RH  038%=      5-min Rain = 0
KVP1 132207Z 14008KT 33/17 A3007 RMK A01 T03290167  RH  038%=      5-min Rain = 0
KVP1 132208Z 12008KT 33/17 A3007 RMK A01 T03290166  RH  038%=      5-min Rain = 0
KVP1 132209Z 10009KT 33/17 A3007 RMK A01 T03270167  RH  038%=      5-min Rain = 0
KVP1 132210Z 08007KT 33/17 A3007 RMK A01 T03280165  RH  038%=      5-min Rain = 0
KVP1 132211Z 08005KT 33/17 A3007 RMK A01 T03300167  RH  038%=      5-min Rain = 0
KVP1 132212Z 08007KT 33/17 A3007 RMK A01 T03300166  RH  038%=      5-min Rain = 0
KVP1 132213Z 11010KT 33/17 A3007 RMK A01 T03290167  RH  038%=      5-min Rain = 0
KVP1 132214Z 10012KT 33/17 A3007 RMK A01 T03320168  RH  038%=      5-min Rain = 0
KVP1 132215Z 10013KT 33/17 A3007 RMK A01 T03320167  RH  037%=      5-min Rain = 0
KVP1 132216Z 09011KT 33/17 A3007 RMK A01 T03310166  RH  037%=      5-min Rain = 0
KVP1 132217Z 08010KT 33/17 A3007 RMK A01 T03300165  RH  037%=      5-min Rain = 0
KVP1 132218Z 09011KT 33/17 A3007 RMK A01 T03290165  RH  038%=      5-min Rain = 0
KVP1 132219Z 08011KT 33/17 A3007 RMK A01 T03290167  RH  038%=      5-min Rain = 0
KVP1 132220Z 09012KT 33/17 A3007 RMK A01 T03310165  RH  037%=      5-min Rain = 0
KVP1 132221Z 10010G15KT 33/17 A3007 RMK A01 T03320166  RH  037%=      5-min Rain = 0
KVP1 132222Z 09014KT 33/17 A3008 RMK A01 T03340168  RH  037%=      5-min Rain = 0
KVP1 132223Z 09013KT 33/17 A3008 RMK A01 T03340168  RH  037%=      5-min Rain = 0
KVP1 132224Z 11010KT 33/17 A3008 RMK A01 T03320166  RH  037%=      5-min Rain = 0
KVP1 132225Z 11008KT 33/17 A3008 RMK A01 T03290168  RH  038%=      5-min Rain = 0
KVP1 132226Z 10008KT 33/17 A3008 RMK A01 T03270167  RH  038%=      5-min Rain = 0
KVP1 132227Z 11007KT 33/17 A3008 RMK A01 T03260167  RH  039%=      5-min Rain = 0
KVP1 132228Z 09008G15KT 33/17 A3008 RMK A01 T03250168  RH  039%=      5-min Rain = 0
KVP1 132229Z 10013KT 33/17 A3008 RMK A01 T03270169  RH  039%=      5-min Rain = 0
KVP1 132230Z 09013KT 33/17 A3007 RMK A01 T03290168  RH  038%=      5-min Rain = 0
KVP1 132231Z 09012KT 33/17 A3007 RMK A01 T03310168  RH  038%=      5-min Rain = 0
KVP1 132232Z 10010KT 33/17 A3007 RMK A01 T03290166  RH  038%=      5-min Rain = 0
KVP1 132233Z 10009KT 33/17 A3007 RMK A01 T03270167  RH  038%=      5-min Rain = 0
KVP1 132234Z 10012KT 33/17 A3007 RMK A01 T03280167  RH  038%=      5-min Rain = 0
KVP1 132235Z 09009KT 33/17 A3007 RMK A01 T03270166  RH  038%=      5-min Rain = 0
KVP1 132236Z 08007KT 33/17 A3007 RMK A01 T03260166  RH  038%=      5-min Rain = 0
KVP1 132237Z 09006KT 33/17 A3007 RMK A01 T03280166  RH  038%=      5-min Rain = 0
KVP1 132238Z 11007KT 33/17 A3008 RMK A01 T03270166  RH  038%=      5-min Rain = 0
KVP1 132239Z 12009KT 33/16 A3008 RMK A01 T03280164  RH  038%=      5-min Rain = 0
KVP1 132240Z 12007KT 33/16 A3008 RMK A01 T03300164  RH  037%=      5-min Rain = 0
KVP1 132241Z 11011KT 33/16 A3008 RMK A01 T03320164  RH  037%=      5-min Rain = 0
KVP1 132242Z 12008KT 33/16 A3008 RMK A01 T03290163  RH  037%=      5-min Rain = 0
KVP1 132243Z 11008KT 33/16 A3008 RMK A01 T03280164  RH  037%=      5-min Rain = 0
KVP1 132244Z 09009KT 33/16 A3008 RMK A01 T03300164  RH  037%=      5-min Rain = 0
KVP1 132245Z 08007KT 33/16 A3008 RMK A01 T03290164  RH  037%=      5-min Rain = 0
KVP1 132246Z 06010G15KT 33/17 A3007 RMK A01 T03260165  RH  038%=      5-min Rain = 0
KVP1 132247Z 08011KT 33/17 A3007 RMK A01 T03270167  RH  038%=      5-min Rain = 0
KVP1 132248Z 07015KT 33/17 A3007 RMK A01 T03290167  RH  038%=      5-min Rain = 0
KVP1 132249Z 07013KT 33/17 A3007 RMK A01 T03300166  RH  038%=      5-min Rain = 0
KVP1 132250Z 06012KT 33/17 A3007 RMK A01 T03300166  RH  038%=      5-min Rain = 0
KVP1 132251Z 07010KT 33/17 A3008 RMK A01 T03310167  RH  037%=      5-min Rain = 0
KVP1 132252Z 07010KT 33/17 A3008 RMK A01 T03330169  RH  038%=      5-min Rain = 0
KVP1 132253Z 07008KT 33/17 A3008 RMK A01 T03310168  RH  038%=      5-min Rain = 0
KVP1 132254Z 08012KT 33/17 A3008 RMK A01 T03300169  RH  038%=      5-min Rain = 0
KVP1 132255Z 08012KT 33/17 A3007 RMK A01 T03290169  RH  038%=      5-min Rain = 0
KVP1 132256Z 08010KT 33/17 A3008 RMK A01 T03280169  RH  039%=      5-min Rain = 0
KVP1 132257Z 08011KT 33/17 A3008 RMK A01 T03300168  RH  038%=      5-min Rain = 0
KVP1 132258Z 07010KT 33/17 A3008 RMK A01 T03310168  RH  038%=      5-min Rain = 0
KVP1 132259Z 08007KT 33/17 A3008 RMK A01 T03290165  RH  038%=      5-min Rain = 0
KVP1 132300Z 10006KT 33/17 A3008 RMK A01 T03280166  RH  038%=      5-min Rain = 0
KVP1 132301Z 10007G12KT 33/17 A3008 RMK A01 T03270167  RH  038%=      5-min Rain = 0
KVP1 132302Z 08011KT 33/17 A3008 RMK A01 T03280167  RH  038%=      5-min Rain = 0
KVP1 132303Z 09011KT 33/17 A3008 RMK A01 T03270166  RH  038%=      5-min Rain = 0
KVP1 132304Z 09012KT 33/17 A3008 RMK A01 T03260165  RH  038%=      5-min Rain = 0
KVP1 132305Z 07011KT 33/16 A3008 RMK A01 T03260164  RH  038%=      5-min Rain = 0
KVP1 132306Z 07011KT 33/17 A3008 RMK A01 T03260165  RH  038%=      5-min Rain = 0
KVP1 132307Z 09012KT 33/17 A3008 RMK A01 T03260167  RH  038%=      5-min Rain = 0
KVP1 132308Z 09011KT 33/17 A3008 RMK A01 T03250166  RH  039%=      5-min Rain = 0
KVP1 132309Z 10013KT 32/17 A3008 RMK A01 T03240168  RH  039%=      5-min Rain = 0
KVP1 132310Z 10011G16KT 32/17 A3008 RMK A01 T03240169  RH  039%=      5-min Rain = 0
KVP1 132311Z 11011KT 32/17 A3008 RMK A01 T03240166  RH  039%=      5-min Rain = 0
KVP1 132312Z 09008KT 32/17 A3008 RMK A01 T03240167  RH  039%=      5-min Rain = 0
KVP1 132313Z 07007KT 32/17 A3008 RMK A01 T03240168  RH  039%=      5-min Rain = 0
KVP1 132314Z 07006KT 32/17 A3008 RMK A01 T03230167  RH  039%=      5-min Rain = 0
KVP1 132315Z 09007G12KT 32/17 A3008 RMK A01 T03220165  RH  039%=      5-min Rain = 0
KVP1 132316Z 10007KT 32/17 A3008 RMK A01 T03240167  RH  039%=      5-min Rain = 0
KVP1 132317Z 11009KT 33/17 A3008 RMK A01 T03250167  RH  039%=      5-min Rain = 0
KVP1 132318Z 12009KT 33/17 A3008 RMK A01 T03260166  RH  038%=      5-min Rain = 0
KVP1 132319Z 12007KT 32/17 A3008 RMK A01 T03230165  RH  039%=      5-min Rain = 0
KVP1 132320Z 11007KT 32/17 A3008 RMK A01 T03230165  RH  039%=      5-min Rain = 0
KVP1 132321Z 09010KT 32/17 A3008 RMK A01 T03230165  RH  039%=      5-min Rain = 0
KVP1 132322Z 07009KT 33/16 A3008 RMK A01 T03250161  RH  037%=      5-min Rain = 0
KVP1 132323Z 09007KT 32/16 A3008 RMK A01 T03240160  RH  038%=      5-min Rain = 0
KVP1 132324Z 08010G15KT 32/16 A3008 RMK A01 T03230161  RH  038%=      5-min Rain = 0
KVP1 132325Z 08013KT 32/16 A3008 RMK A01 T03240164  RH  038%=      5-min Rain = 0
KVP1 132326Z 09011KT 32/16 A3008 RMK A01 T03230163  RH  038%=      5-min Rain = 0
KVP1 132327Z 09009KT 32/16 A3008 RMK A01 T03240164  RH  038%=      5-min Rain = 0
KVP1 132328Z 10007KT 32/16 A3008 RMK A01 T03240164  RH  038%=      5-min Rain = 0
KVP1 132329Z 08007KT 32/16 A3008 RMK A01 T03220163  RH  038%=      5-min Rain = 0
KVP1 132330Z 09007KT 32/16 A3008 RMK A01 T03220163  RH  039%=      5-min Rain = 0
KVP1 132331Z 08010KT 32/17 A3008 RMK A01 T03240167  RH  039%=      5-min Rain = 0
KVP1 132332Z 08007KT 32/17 A3008 RMK A01 T03210167  RH  040%=      5-min Rain = 0
KVP1 132333Z 11005KT 32/17 A3008 RMK A01 T03190167  RH  040%=      5-min Rain = 0
KVP1 132334Z 12005KT 32/17 A3008 RMK A01 T03190167  RH  040%=      5-min Rain = 0
KVP1 132335Z 12006KT 32/17 A3008 RMK A01 T03190167  RH  040%=      5-min Rain = 0
KVP1 132336Z 10013KT 32/17 A3008 RMK A01 T03200168  RH  040%=      5-min Rain = 0
KVP1 132337Z 10012KT 32/17 A3008 RMK A01 T03210167  RH  040%=      5-min Rain = 0
KVP1 132338Z 10009KT 32/17 A3008 RMK A01 T03210166  RH  040%=      5-min Rain = 0
KVP1 132339Z 10010KT 32/17 A3008 RMK A01 T03210166  RH  039%=      5-min Rain = 0
KVP1 132340Z 10008KT 32/17 A3008 RMK A01 T03210165  RH  039%=      5-min Rain = 0
KVP1 132341Z 08008KT 32/17 A3008 RMK A01 T03190165  RH  040%=      5-min Rain = 0
KVP1 132342Z 09009KT 32/17 A3008 RMK A01 T03200165  RH  039%=      5-min Rain = 0
KVP1 132343Z 10010KT 32/16 A3008 RMK A01 T03230164  RH  039%=      5-min Rain = 0
KVP1 132344Z 08012KT 32/16 A3008 RMK A01 T03230162  RH  038%=      5-min Rain = 0
KVP1 132345Z 08011KT 32/16 A3008 RMK A01 T03230162  RH  038%=      5-min Rain = 0
KVP1 132346Z 08011KT 32/16 A3008 RMK A01 T03220162  RH  038%=      5-min Rain = 0
KVP1 132347Z 09009KT 32/16 A3008 RMK A01 T03210163  RH  039%=      5-min Rain = 0
KVP1 132348Z 08008KT 32/16 A3008 RMK A01 T03200164  RH  039%=      5-min Rain = 0
KVP1 132349Z 08008KT 32/17 A3008 RMK A01 T03210167  RH  040%=      5-min Rain = 0
KVP1 132350Z 07010KT 32/17 A3008 RMK A01 T03210166  RH  040%=      5-min Rain = 0
KVP1 132351Z 07009KT 32/16 A3008 RMK A01 T03200164  RH  039%=      5-min Rain = 0
KVP1 132352Z 07009KT 32/16 A3008 RMK A01 T03210162  RH  039%=      5-min Rain = 0
KVP1 132353Z 08008KT 32/16 A3008 RMK A01 T03200161  RH  038%=      5-min Rain = 0
KVP1 132354Z 07006KT 32/16 A3008 RMK A01 T03180162  RH  039%=      5-min Rain = 0
KVP1 132355Z 08006G11KT 32/16 A3008 RMK A01 T03180163  RH  039%=      5-min Rain = 0
KVP1 132356Z 08011KT 32/17 A3008 RMK A01 T03180166  RH  040%=      5-min Rain = 0
KVP1 132357Z 08009KT 32/17 A3008 RMK A01 T03180167  RH  040%=      5-min Rain = 0
KVP1 132358Z 07009KT 32/17 A3008 RMK A01 T03170167  RH  041%=      5-min Rain = 0
KVP1 132359Z 07008KT 32/17 A3008 RMK A01 T03160167  RH  041%=      5-min Rain = 0
KVP1 140000Z 07010KT 32/17 A3008 RMK A01 T03170168  RH  041%=      5-min Rain = 0
KVP1 140001Z 08010KT 32/17 A3008 RMK A01 T03170169  RH  041%=      5-min Rain = 0
KVP1 140002Z 09012KT 32/17 A3008 RMK A01 T03170169  RH  041%=      5-min Rain = 0
KVP1 140003Z 08010KT 32/17 A3008 RMK A01 T03150168  RH  041%=      5-min Rain = 0
KVP1 140004Z 10009KT 31/17 A3008 RMK A01 T03140168  RH  041%=      5-min Rain = 0
KVP1 140005Z 09008KT 32/17 A3008 RMK A01 T03150167  RH  041%=      5-min Rain = 0
KVP1 140006Z 10007KT 32/17 A3008 RMK A01 T03150167  RH  041%=      5-min Rain = 0
KVP1 140007Z 10006KT 32/17 A3008 RMK A01 T03160168  RH  041%=      5-min Rain = 0
KVP1 140008Z 08007KT 32/17 A3008 RMK A01 T03170168  RH  041%=      5-min Rain = 0
KVP1 140009Z 07009KT 32/17 A3008 RMK A01 T03190168  RH  040%=      5-min Rain = 0
KVP1 140010Z 07011KT 32/17 A3008 RMK A01 T03180168  RH  041%=      5-min Rain = 0
KVP1 140011Z 07011KT 32/17 A3008 RMK A01 T03160168  RH  041%=      5-min Rain = 0
KVP1 140012Z 08010KT 31/17 A3008 RMK A01 T03140168  RH  042%=      5-min Rain = 0
KVP1 140013Z 09012KT 31/17 A3008 RMK A01 T03140168  RH  041%=      5-min Rain = 0
KVP1 140014Z 09008KT 31/17 A3008 RMK A01 T03130167  RH  042%=      5-min Rain = 0
KVP1 140015Z 07010KT 31/17 A3008 RMK A01 T03120167  RH  042%=      5-min Rain = 0
KVP1 140016Z 06011KT 31/17 A3008 RMK A01 T03110167  RH  042%=      5-min Rain = 0
KVP1 140017Z 07010KT 31/17 A3008 RMK A01 T03120168  RH  042%=      5-min Rain = 0
KVP1 140018Z 06011KT 31/17 A3008 RMK A01 T03110169  RH  042%=      5-min Rain = 0
KVP1 140019Z 06013KT 31/17 A3008 RMK A01 T03110169  RH  042%=      5-min Rain = 0
KVP1 140020Z 07012KT 31/17 A3008 RMK A01 T03110167  RH  042%=      5-min Rain = 0
KVP1 140021Z 08009KT 31/17 A3008 RMK A01 T03100167  RH  042%=      5-min Rain = 0
KVP1 140022Z 07010KT 31/17 A3008 RMK A01 T03100167  RH  042%=      5-min Rain = 0
KVP1 140023Z 08008KT 31/17 A3008 RMK A01 T03100168  RH  043%=      5-min Rain = 0
KVP1 140024Z 08010KT 31/17 A3008 RMK A01 T03090168  RH  043%=      5-min Rain = 0
KVP1 140025Z 08010KT 31/17 A3008 RMK A01 T03090169  RH  043%=      5-min Rain = 0
KVP1 140026Z 08010KT 31/17 A3008 RMK A01 T03100170  RH  043%=      5-min Rain = 0
KVP1 140027Z 08010KT 31/17 A3008 RMK A01 T03100171  RH  043%=      5-min Rain = 0
KVP1 140028Z 07010KT 31/17 A3008 RMK A01 T03090170  RH  043%=      5-min Rain = 0
KVP1 140029Z 06009KT 31/17 A3008 RMK A01 T03080171  RH  044%=      5-min Rain = 0
KVP1 140030Z 06010KT 31/17 A3008 RMK A01 T03080171  RH  044%=      5-min Rain = 0
KVP1 140031Z 07009KT 31/17 A3008 RMK A01 T03080171  RH  044%=      5-min Rain = 0
KVP1 140032Z 08010KT 31/17 A3008 RMK A01 T03080169  RH  044%=      5-min Rain = 0
KVP1 140033Z 07009KT 31/17 A3008 RMK A01 T03070168  RH  043%=      5-min Rain = 0
KVP1 140034Z 07009KT 31/17 A3008 RMK A01 T03080169  RH  043%=      5-min Rain = 0
KVP1 140035Z 07011KT 31/17 A3008 RMK A01 T03070170  RH  044%=      5-min Rain = 0
KVP1 140036Z 08011KT 31/17 A3008 RMK A01 T03070170  RH  044%=      5-min Rain = 0
KVP1 140037Z 08011KT 31/17 A3008 RMK A01 T03070170  RH  044%=      5-min Rain = 0
KVP1 140038Z 09010KT 31/17 A3009 RMK A01 T03070169  RH  044%=      5-min Rain = 0
KVP1 140039Z 08010KT 31/17 A3008 RMK A01 T03060169  RH  044%=      5-min Rain = 0
KVP1 140040Z 09009KT 31/17 A3009 RMK A01 T03070171  RH  044%=      5-min Rain = 0
KVP1 140041Z 08009KT 31/17 A3008 RMK A01 T03080170  RH  043%=      5-min Rain = 0
KVP1 140042Z 08009KT 31/17 A3008 RMK A01 T03080170  RH  044%=      5-min Rain = 0
KVP1 140043Z 10007KT 31/17 A3008 RMK A01 T03070169  RH  044%=      5-min Rain = 0
KVP1 140044Z 09007KT 31/17 A3008 RMK A01 T03060169  RH  044%=      5-min Rain = 0
KVP1 140045Z 09008KT 31/17 A3008 RMK A01 T03060169  RH  044%=      5-min Rain = 0
KVP1 140046Z 09007KT 31/17 A3008 RMK A01 T03060168  RH  044%=      5-min Rain = 0
KVP1 140047Z 07010KT 31/17 A3008 RMK A01 T03060169  RH  044%=      5-min Rain = 0
KVP1 140048Z 07010KT 31/17 A3008 RMK A01 T03060171  RH  044%=      5-min Rain = 0
KVP1 140049Z 07011KT 31/17 A3008 RMK A01 T03050170  RH  044%=      5-min Rain = 0
KVP1 140050Z 07010KT 30/17 A3008 RMK A01 T03040170  RH  045%=      5-min Rain = 0
KVP1 140051Z 07009KT 30/17 A3008 RMK A01 T03030170  RH  045%=      5-min Rain = 0
KVP1 140052Z 09008KT 30/17 A3008 RMK A01 T03020169  RH  045%=      5-min Rain = 0
KVP1 140053Z 08008KT 30/17 A3008 RMK A01 T03020168  RH  044%=      5-min Rain = 0
KVP1 140054Z 07010KT 30/17 A3009 RMK A01 T03020168  RH  045%=      5-min Rain = 0
KVP1 140055Z 07009KT 30/17 A3009 RMK A01 T03020169  RH  045%=      5-min Rain = 0
KVP1 140056Z 07009KT 30/17 A3009 RMK A01 T03020169  RH  045%=      5-min Rain = 0
KVP1 140057Z 08009KT 30/17 A3009 RMK A01 T03010168  RH  045%=      5-min Rain = 0
KVP1 140058Z 08008KT 30/17 A3009 RMK A01 T03010169  RH  045%=      5-min Rain = 0
KVP1 140059Z 08010KT 30/17 A3009 RMK A01 T03010169  RH  045%=      5-min Rain = 0
KVP1 140100Z 08009KT 30/17 A3009 RMK A01 T03010169  RH  045%=      5-min Rain = 0
KVP1 140101Z 08009KT 30/17 A3009 RMK A01 T03000169  RH  045%=      5-min Rain = 0
KVP1 140102Z 07008KT 30/17 A3009 RMK A01 T03000169  RH  045%=      5-min Rain = 0
KVP1 140103Z 07008KT 30/17 A3009 RMK A01 T03000169  RH  045%=      5-min Rain = 0
KVP1 140104Z 08008KT 30/17 A3009 RMK A01 T02990170  RH  046%=      5-min Rain = 0
KVP1 140105Z 08011KT 30/17 A3009 RMK A01 T02990171  RH  046%=      5-min Rain = 0
KVP1 140106Z 08011KT 30/17 A3009 RMK A01 T02980172  RH  047%=      5-min Rain = 0
KVP1 140107Z 08010KT 30/17 A3009 RMK A01 T02980173  RH  047%=      5-min Rain = 0
KVP1 140108Z 09011KT 30/17 A3009 RMK A01 T02980173  RH  047%=      5-min Rain = 0
KVP1 140109Z 09011KT 30/17 A3009 RMK A01 T02980173  RH  047%=      5-min Rain = 0
KVP1 140110Z 09011KT 30/17 A3009 RMK A01 T02970173  RH  047%=      5-min Rain = 0
KVP1 140111Z 09010KT 30/17 A3009 RMK A01 T02970173  RH  047%=      5-min Rain = 0
KVP1 140112Z 09010KT 30/17 A3009 RMK A01 T02960172  RH  047%=      5-min Rain = 0
KVP1 140113Z 09009KT 30/17 A301 RMK A01 T02960173  RH  047%=      5-min Rain = 0
KVP1 140114Z 08008KT 30/17 A301 RMK A01 T02960172  RH  047%=      5-min Rain = 0
KVP1 140115Z 08009KT 30/17 A301 RMK A01 T02950173  RH  048%=      5-min Rain = 0
KVP1 140116Z 08009KT 29/17 A301 RMK A01 T02940173  RH  048%=      5-min Rain = 0
KVP1 140117Z 07009KT 29/17 A301 RMK A01 T02940173  RH  048%=      5-min Rain = 0
KVP1 140118Z 07009KT 29/17 A301 RMK A01 T02930173  RH  048%=      5-min Rain = 0
KVP1 140119Z 08009KT 29/17 A301 RMK A01 T02930173  RH  049%=      5-min Rain = 0
KVP1 140120Z 08008KT 29/17 A301 RMK A01 T02920172  RH  049%=      5-min Rain = 0
KVP1 140121Z 09009KT 29/17 A301 RMK A01 T02930173  RH  048%=      5-min Rain = 0
KVP1 140122Z 09008KT 29/17 A301 RMK A01 T02920173  RH  048%=      5-min Rain = 0
KVP1 140123Z 08009KT 29/17 A301 RMK A01 T02920172  RH  048%=      5-min Rain = 0
KVP1 140124Z 08010KT 29/17 A301 RMK A01 T02920173  RH  049%=      5-min Rain = 0
KVP1 140125Z 08010KT 29/17 A301 RMK A01 T02920173  RH  049%=      5-min Rain = 0
KVP1 140126Z 08008KT 29/17 A301 RMK A01 T02920173  RH  049%=      5-min Rain = 0
KVP1 140127Z 08009KT 29/17 A301 RMK A01 T02910172  RH  049%=      5-min Rain = 0
KVP1 140128Z 07008KT 29/17 A301 RMK A01 T02910173  RH  049%=      5-min Rain = 0
KVP1 140129Z 07009KT 29/17 A301 RMK A01 T02890172  RH  049%=      5-min Rain = 0
KVP1 140130Z 07008KT 29/17 A301 RMK A01 T02880172  RH  050%=      5-min Rain = 0
KVP1 140131Z 07009KT 29/17 A3011 RMK A01 T02870172  RH  050%=      5-min Rain = 0
KVP1 140132Z 07009KT 29/17 A3011 RMK A01 T02860173  RH  050%=      5-min Rain = 0
KVP1 140133Z 07008KT 28/17 A3011 RMK A01 T02840172  RH  051%=      5-min Rain = 0
KVP1 140134Z 08008KT 28/17 A3011 RMK A01 T02830172  RH  051%=      5-min Rain = 0
KVP1 140135Z 08008KT 28/17 A3011 RMK A01 T02830172  RH  051%=      5-min Rain = 0
KVP1 140136Z 08008KT 28/17 A3011 RMK A01 T02830171  RH  051%=      5-min Rain = 0
KVP1 140137Z 08008KT 28/17 A3011 RMK A01 T02830172  RH  051%=      5-min Rain = 0
KVP1 140138Z 08008KT 28/17 A3011 RMK A01 T02830172  RH  051%=      5-min Rain = 0
KVP1 140139Z 09008KT 28/17 A3011 RMK A01 T02830171  RH  051%=      5-min Rain = 0
KVP1 140140Z 09009KT 28/17 A3011 RMK A01 T02830171  RH  051%=      5-min Rain = 0
KVP1 140141Z 09009KT 28/17 A3011 RMK A01 T02830171  RH  050%=      5-min Rain = 0
KVP1 140142Z 09008KT 28/17 A3011 RMK A01 T02840170  RH  050%=      5-min Rain = 0
KVP1 140143Z 09008KT 28/17 A3011 RMK A01 T02840170  RH  050%=      5-min Rain = 0
KVP1 140144Z 09009KT 28/17 A3011 RMK A01 T02840170  RH  050%=      5-min Rain = 0
KVP1 140145Z 09009KT 28/17 A3011 RMK A01 T02840170  RH  050%=      5-min Rain = 0
KVP1 140146Z 09009KT 28/17 A3011 RMK A01 T02840171  RH  050%=      5-min Rain = 0
KVP1 140147Z 09009KT 28/17 A3011 RMK A01 T02840171  RH  051%=      5-min Rain = 0
KVP1 140148Z 09009KT 28/17 A3011 RMK A01 T02830171  RH  051%=      5-min Rain = 0
KVP1 140149Z 09009KT 28/17 A3011 RMK A01 T02820171  RH  051%=      5-min Rain = 0
KVP1 140150Z 09009KT 28/17 A3011 RMK A01 T02810170  RH  051%=      5-min Rain = 0
KVP1 140151Z 09009KT 28/17 A3011 RMK A01 T02810171  RH  051%=      5-min Rain = 0
KVP1 140152Z 09009KT 28/17 A3011 RMK A01 T02810171  RH  051%=      5-min Rain = 0
KVP1 140153Z 09009KT 28/17 A3011 RMK A01 T02810171  RH  051%=      5-min Rain = 0
KVP1 140154Z 09009KT 28/17 A3011 RMK A01 T02800172  RH  052%=      5-min Rain = 0
KVP1 140155Z 09008KT 28/17 A3011 RMK A01 T02790171  RH  052%=      5-min Rain = 0
KVP1 140156Z 09009KT 28/17 A3011 RMK A01 T02790172  RH  052%=      5-min Rain = 0
KVP1 140157Z 09009KT 28/17 A3011 RMK A01 T02780172  RH  052%=      5-min Rain = 0
KVP1 140158Z 09009KT 28/17 A3011 RMK A01 T02790172  RH  052%=      5-min Rain = 0
KVP1 140159Z 09008KT 28/17 A3011 RMK A01 T02780172  RH  053%=      5-min Rain = 0
KVP1 140200Z 09010KT 28/17 A3012 RMK A01 T02780173  RH  053%=      5-min Rain = 0
KVP1 140201Z 09009KT 28/17 A3012 RMK A01 T02780173  RH  053%=      5-min Rain = 0
KVP1 140202Z 09009KT 28/17 A3012 RMK A01 T02780173  RH  053%=      5-min Rain = 0
KVP1 140203Z 09009KT 28/17 A3012 RMK A01 T02780174  RH  053%=      5-min Rain = 0
KVP1 140204Z 09008KT 28/17 A3012 RMK A01 T02780173  RH  053%=      5-min Rain = 0
KVP1 140205Z 09008KT 28/17 A3012 RMK A01 T02770173  RH  053%=      5-min Rain = 0
KVP1 140206Z 09009KT 28/17 A3012 RMK A01 T02770174  RH  053%=      5-min Rain = 0
KVP1 140207Z 09008KT 28/17 A3012 RMK A01 T02770174  RH  053%=      5-min Rain = 0
KVP1 140208Z 09009KT 28/17 A3012 RMK A01 T02760173  RH  053%=      5-min Rain = 0
KVP1 140209Z 09009KT 28/17 A3012 RMK A01 T02760174  RH  054%=      5-min Rain = 0
KVP1 140210Z 09009KT 28/17 A3012 RMK A01 T02760174  RH  054%=      5-min Rain = 0
KVP1 140211Z 09009KT 28/17 A3012 RMK A01 T02760173  RH  054%=      5-min Rain = 0
KVP1 140212Z 09009KT 28/17 A3012 RMK A01 T02760174  RH  054%=      5-min Rain = 0
KVP1 140213Z 09009KT 28/17 A3013 RMK A01 T02760174  RH  054%=      5-min Rain = 0
KVP1 140214Z 09008KT 28/17 A3013 RMK A01 T02750173  RH  054%=      5-min Rain = 0
KVP1 140215Z 09009KT 28/17 A3013 RMK A01 T02750173  RH  054%=      5-min Rain = 0
KVP1 140216Z 09008KT 28/17 A3013 RMK A01 T02750173  RH  054%=      5-min Rain = 0
KVP1 140217Z 09007KT 27/17 A3013 RMK A01 T02740173  RH  054%=      5-min Rain = 0
KVP1 140218Z 09008KT 27/17 A3013 RMK A01 T02730172  RH  054%=      5-min Rain = 0
KVP1 140219Z 09008KT 27/17 A3013 RMK A01 T02730172  RH  054%=      5-min Rain = 0
KVP1 140220Z 09007KT 27/17 A3013 RMK A01 T02720173  RH  054%=      5-min Rain = 0
KVP1 140221Z 09007KT 27/17 A3013 RMK A01 T02720172  RH  055%=      5-min Rain = 0
KVP1 140222Z 09008KT 27/17 A3013 RMK A01 T02710172  RH  055%=      5-min Rain = 0
KVP1 140223Z 08008KT 27/17 A3013 RMK A01 T02710173  RH  055%=      5-min Rain = 0
KVP1 140224Z 08008KT 27/17 A3014 RMK A01 T02710173  RH  055%=      5-min Rain = 0
KVP1 140225Z 08008KT 27/17 A3014 RMK A01 T02710173  RH  055%=      5-min Rain = 0
KVP1 140226Z 08008KT 27/17 A3014 RMK A01 T02710173  RH  055%=      5-min Rain = 0
KVP1 140227Z 09007KT 27/17 A3014 RMK A01 T02710173  RH  055%=      5-min Rain = 0
KVP1 140228Z 09007KT 27/17 A3014 RMK A01 T02710173  RH  055%=      5-min Rain = 0
KVP1 140229Z 09008KT 27/17 A3014 RMK A01 T02700173  RH  055%=      5-min Rain = 0
KVP1 140230Z 09008KT 27/17 A3014 RMK A01 T02700173  RH  055%=      5-min Rain = 0
KVP1 140231Z 09008KT 27/17 A3014 RMK A01 T02690173  RH  056%=      5-min Rain = 0
KVP1 140232Z 09008KT 27/17 A3014 RMK A01 T02690173  RH  056%=      5-min Rain = 0
KVP1 140233Z 09009KT 27/17 A3014 RMK A01 T02690173  RH  056%=      5-min Rain = 0
KVP1 140234Z 09009KT 27/17 A3014 RMK A01 T02700174  RH  056%=      5-min Rain = 0
KVP1 140235Z 09009KT 27/18 A3014 RMK A01 T02690175  RH  056%=      5-min Rain = 0
KVP1 140236Z 09009KT 27/17 A3014 RMK A01 T02690174  RH  056%=      5-min Rain = 0
KVP1 140237Z 09009KT 27/18 A3014 RMK A01 T02690175  RH  056%=      5-min Rain = 0
KVP1 140238Z 09010KT 27/18 A3014 RMK A01 T02690176  RH  057%=      5-min Rain = 0
KVP1 140239Z 09010KT 27/18 A3014 RMK A01 T02690176  RH  056%=      5-min Rain = 0
KVP1 140240Z 09009KT 27/18 A3014 RMK A01 T02690175  RH  057%=      5-min Rain = 0
KVP1 140241Z 09010KT 27/18 A3014 RMK A01 T02690176  RH  057%=      5-min Rain = 0
KVP1 140242Z 09010KT 27/18 A3014 RMK A01 T02690176  RH  057%=      5-min Rain = 0
KVP1 140243Z 09010KT 27/18 A3014 RMK A01 T02680176  RH  057%=      5-min Rain = 0
KVP1 140244Z 09009KT 27/18 A3014 RMK A01 T02680176  RH  057%=      5-min Rain = 0
KVP1 140245Z 09010KT 27/18 A3014 RMK A01 T02680176  RH  057%=      5-min Rain = 0
KVP1 140246Z 08009KT 27/18 A3014 RMK A01 T02680176  RH  057%=      5-min Rain = 0
KVP1 140247Z 09009KT 27/18 A3014 RMK A01 T02680175  RH  057%=      5-min Rain = 0
KVP1 140248Z 08010KT 27/18 A3014 RMK A01 T02670175  RH  057%=      5-min Rain = 0
KVP1 140249Z 09010KT 27/18 A3014 RMK A01 T02670176  RH  057%=      5-min Rain = 0
KVP1 140250Z 09010KT 27/18 A3015 RMK A01 T02670175  RH  057%=      5-min Rain = 0
KVP1 140251Z 09010KT 27/18 A3015 RMK A01 T02660175  RH  057%=      5-min Rain = 0
KVP1 140252Z 08009KT 27/18 A3015 RMK A01 T02670175  RH  057%=      5-min Rain = 0
KVP1 140253Z 09010KT 27/18 A3015 RMK A01 T02660175  RH  057%=      5-min Rain = 0
KVP1 140254Z 09009KT 27/18 A3015 RMK A01 T02660175  RH  057%=      5-min Rain = 0
KVP1 140255Z 09009KT 27/17 A3015 RMK A01 T02650174  RH  058%=      5-min Rain = 0
KVP1 140256Z 09009KT 26/17 A3015 RMK A01 T02640174  RH  058%=      5-min Rain = 0
KVP1 140257Z 09009KT 26/17 A3015 RMK A01 T02640174  RH  058%=      5-min Rain = 0
KVP1 140258Z 08009KT 26/17 A3015 RMK A01 T02630174  RH  058%=      5-min Rain = 0
KVP1 140259Z 08009KT 26/17 A3015 RMK A01 T02630174  RH  058%=      5-min Rain = 0
KVP1 140300Z 08008KT 26/17 A3015 RMK A01 T02620174  RH  058%=      5-min Rain = 0
KVP1 140301Z 08008KT 26/17 A3015 RMK A01 T02620174  RH  058%=      5-min Rain = 0
KVP1 140302Z 08008KT 26/17 A3015 RMK A01 T02620174  RH  059%=      5-min Rain = 0
KVP1 140303Z 08009KT 26/17 A3015 RMK A01 T02610173  RH  059%=      5-min Rain = 0
KVP1 140304Z 09009KT 26/17 A3015 RMK A01 T02610174  RH  059%=      5-min Rain = 0
KVP1 140305Z 09009KT 26/17 A3015 RMK A01 T02610174  RH  059%=      5-min Rain = 0
KVP1 140306Z 09010KT 26/17 A3015 RMK A01 T02610174  RH  059%=      5-min Rain = 0
KVP1 140307Z 09010KT 26/17 A3015 RMK A01 T02610174  RH  059%=      5-min Rain = 0
KVP1 140308Z 09009KT 26/17 A3015 RMK A01 T02610173  RH  059%=      5-min Rain = 0
KVP1 140309Z 09009KT 26/17 A3015 RMK A01 T02610173  RH  058%=      5-min Rain = 0
KVP1 140310Z 09009KT 26/17 A3015 RMK A01 T02610173  RH  058%=      5-min Rain = 0
KVP1 140311Z 09009KT 26/17 A3015 RMK A01 T02600172  RH  058%=      5-min Rain = 0
KVP1 140312Z 09009KT 26/17 A3015 RMK A01 T02600172  RH  058%=      5-min Rain = 0
KVP1 140313Z 09009KT 26/17 A3015 RMK A01 T02590172  RH  059%=      5-min Rain = 0
KVP1 140314Z 09009KT 26/17 A3015 RMK A01 T02590172  RH  059%=      5-min Rain = 0
KVP1 140315Z 09009KT 26/17 A3015 RMK A01 T02580172  RH  059%=      5-min Rain = 0
KVP1 140316Z 09009KT 26/17 A3015 RMK A01 T02580172  RH  059%=      5-min Rain = 0
KVP1 140317Z 09009KT 26/17 A3015 RMK A01 T02580172  RH  059%=      5-min Rain = 0
KVP1 140318Z 09009KT 26/17 A3015 RMK A01 T02580171  RH  059%=      5-min Rain = 0
KVP1 140319Z 09009KT 26/17 A3015 RMK A01 T02580171  RH  059%=      5-min Rain = 0
KVP1 140320Z 09009KT 26/17 A3015 RMK A01 T02580171  RH  059%=      5-min Rain = 0
KVP1 140321Z 09009KT 26/17 A3015 RMK A01 T02580172  RH  059%=      5-min Rain = 0
KVP1 140322Z 09009KT 26/17 A3015 RMK A01 T02570171  RH  059%=      5-min Rain = 0
KVP1 140323Z 09008KT 26/17 A3015 RMK A01 T02570171  RH  059%=      5-min Rain = 0
KVP1 140324Z 10009KT 26/17 A3015 RMK A01 T02560171  RH  059%=      5-min Rain = 0
KVP1 140325Z 09009KT 26/17 A3015 RMK A01 T02550171  RH  060%=      5-min Rain = 0
KVP1 140326Z 10008KT 26/17 A3015 RMK A01 T02550171  RH  060%=      5-min Rain = 0
KVP1 140327Z 09008KT 25/17 A3015 RMK A01 T02540171  RH  060%=      5-min Rain = 0
KVP1 140328Z 10008KT 25/17 A3015 RMK A01 T02540171  RH  060%=      5-min Rain = 0
KVP1 140329Z 10007KT 25/17 A3015 RMK A01 T02530171  RH  060%=      5-min Rain = 0
KVP1 140330Z 10008KT 25/17 A3015 RMK A01 T02530171  RH  060%=      5-min Rain = 0
KVP1 140331Z 10008KT 25/17 A3015 RMK A01 T02530171  RH  061%=      5-min Rain = 0
KVP1 140332Z 10008KT 25/17 A3015 RMK A01 T02520171  RH  061%=      5-min Rain = 0
KVP1 140333Z 10007KT 25/17 A3015 RMK A01 T02520171  RH  061%=      5-min Rain = 0
KVP1 140334Z 10007KT 25/17 A3015 RMK A01 T02510171  RH  061%=      5-min Rain = 0
KVP1 140335Z 10007KT 25/17 A3015 RMK A01 T02500171  RH  061%=      5-min Rain = 0
KVP1 140336Z 10007KT 25/17 A3015 RMK A01 T02500171  RH  061%=      5-min Rain = 0
KVP1 140337Z 09007KT 25/17 A3015 RMK A01 T02490170  RH  062%=      5-min Rain = 0
KVP1 140338Z 10008KT 25/17 A3016 RMK A01 T02490171  RH  062%=      5-min Rain = 0
KVP1 140339Z 09007KT 25/17 A3016 RMK A01 T02480171  RH  062%=      5-min Rain = 0
KVP1 140340Z 09007KT 25/17 A3016 RMK A01 T02480171  RH  062%=      5-min Rain = 0
KVP1 140341Z 10008KT 25/17 A3016 RMK A01 T02490171  RH  062%=      5-min Rain = 0
KVP1 140342Z 09007KT 25/17 A3016 RMK A01 T02480171  RH  062%=      5-min Rain = 0
KVP1 140343Z 10007KT 25/17 A3016 RMK A01 T02480171  RH  062%=      5-min Rain = 0
KVP1 140344Z 10007KT 25/17 A3016 RMK A01 T02480171  RH  062%=      5-min Rain = 0
KVP1 140345Z 10007KT 25/17 A3016 RMK A01 T02480171  RH  062%=      5-min Rain = 0
KVP1 140346Z 09007KT 25/17 A3016 RMK A01 T02480171  RH  062%=      5-min Rain = 0
KVP1 140347Z 09007KT 25/17 A3016 RMK A01 T02480171  RH  062%=      5-min Rain = 0
KVP1 140348Z 10008KT 25/17 A3016 RMK A01 T02480171  RH  062%=      5-min Rain = 0
KVP1 140349Z 09007KT 25/17 A3016 RMK A01 T02480171  RH  062%=      5-min Rain = 0
KVP1 140350Z 10007KT 25/17 A3017 RMK A01 T02480171  RH  062%=      5-min Rain = 0
KVP1 140351Z 10007KT 25/17 A3017 RMK A01 T02480172  RH  062%=      5-min Rain = 0
KVP1 140352Z 10007KT 25/17 A3017 RMK A01 T02480171  RH  062%=      5-min Rain = 0
KVP1 140353Z 10007KT 25/17 A3017 RMK A01 T02480171  RH  062%=      5-min Rain = 0
KVP1 140354Z 10007KT 25/17 A3016 RMK A01 T02470171  RH  063%=      5-min Rain = 0
KVP1 140355Z 10008KT 25/17 A3017 RMK A01 T02480171  RH  063%=      5-min Rain = 0
KVP1 140356Z 10007KT 25/17 A3017 RMK A01 T02470171  RH  063%=      5-min Rain = 0
KVP1 140357Z 10007KT 25/17 A3017 RMK A01 T02470171  RH  063%=      5-min Rain = 0
KVP1 140358Z 10007KT 25/17 A3017 RMK A01 T02470172  RH  063%=      5-min Rain = 0
KVP1 140359Z 10008KT 25/17 A3017 RMK A01 T02460171  RH  063%=      5-min Rain = 0
KVP1 140400Z 10008KT 25/17 A3017 RMK A01 T02450172  RH  063%=      5-min Rain = 0
KVP1 140401Z 10008KT 25/17 A3017 RMK A01 T02460172  RH  064%=      5-min Rain = 0
KVP1 140402Z 10008KT 25/17 A3017 RMK A01 T02450173  RH  064%=      5-min Rain = 0
KVP1 140403Z 10008KT 25/17 A3017 RMK A01 T02450173  RH  064%=      5-min Rain = 0
KVP1 140404Z 10008KT 25/17 A3017 RMK A01 T02450173  RH  064%=      5-min Rain = 0
KVP1 140405Z 10008KT 25/17 A3017 RMK A01 T02450173  RH  064%=      5-min Rain = 0
KVP1 140406Z 09008KT 25/17 A3017 RMK A01 T02450173  RH  064%=      5-min Rain = 0
KVP1 140407Z 09008KT 25/17 A3017 RMK A01 T02450173  RH  064%=      5-min Rain = 0
KVP1 140408Z 09008KT 25/17 A3017 RMK A01 T02450173  RH  064%=      5-min Rain = 0
KVP1 140409Z 10008KT 25/17 A3017 RMK A01 T02450174  RH  064%=      5-min Rain = 0
KVP1 140410Z 10008KT 25/17 A3017 RMK A01 T02450174  RH  065%=      5-min Rain = 0
KVP1 140411Z 10007KT 25/17 A3017 RMK A01 T02450173  RH  064%=      5-min Rain = 0
KVP1 140412Z 09007KT 25/17 A3017 RMK A01 T02450173  RH  064%=      5-min Rain = 0
KVP1 140413Z 09007KT 24/17 A3017 RMK A01 T02440173  RH  065%=      5-min Rain = 0
KVP1 140414Z 09007KT 24/17 A3017 RMK A01 T02430173  RH  065%=      5-min Rain = 0
KVP1 140415Z 09007KT 24/17 A3017 RMK A01 T02430173  RH  065%=      5-min Rain = 0
KVP1 140416Z 09007KT 24/17 A3017 RMK A01 T02430173  RH  065%=      5-min Rain = 0
KVP1 140417Z 09007KT 24/17 A3017 RMK A01 T02420173  RH  065%=      5-min Rain = 0
KVP1 140418Z 09007KT 24/17 A3017 RMK A01 T02430173  RH  065%=      5-min Rain = 0
KVP1 140419Z 09008KT 24/17 A3017 RMK A01 T02420172  RH  065%=      5-min Rain = 0
KVP1 140420Z 09008KT 24/17 A3017 RMK A01 T02420172  RH  065%=      5-min Rain = 0
KVP1 140421Z 10008KT 24/17 A3017 RMK A01 T02430173  RH  065%=      5-min Rain = 0
KVP1 140422Z 09008KT 24/17 A3017 RMK A01 T02430173  RH  065%=      5-min Rain = 0
KVP1 140423Z 09007KT 24/17 A3017 RMK A01 T02430173  RH  065%=      5-min Rain = 0
KVP1 140424Z 09007KT 24/17 A3017 RMK A01 T02430174  RH  065%=      5-min Rain = 0
KVP1 140425Z 09008KT 24/17 A3017 RMK A01 T02430174  RH  065%=      5-min Rain = 0
KVP1 140426Z 09008KT 24/17 A3017 RMK A01 T02430174  RH  065%=      5-min Rain = 0
KVP1 140427Z 10008KT 24/17 A3017 RMK A01 T02430173  RH  065%=      5-min Rain = 0
KVP1 140428Z 10008KT 24/17 A3017 RMK A01 T02430174  RH  065%=      5-min Rain = 0
KVP1 140429Z 10008KT 24/17 A3016 RMK A01 T02420174  RH  066%=      5-min Rain = 0
KVP1 140430Z 10008KT 24/17 A3016 RMK A01 T02420174  RH  066%=      5-min Rain = 0
KVP1 140431Z 10008KT 24/17 A3016 RMK A01 T02410174  RH  066%=      5-min Rain = 0
KVP1 140432Z 10008KT 24/17 A3016 RMK A01 T02400174  RH  066%=      5-min Rain = 0
KVP1 140433Z 10009KT 24/17 A3016 RMK A01 T02390174  RH  067%=      5-min Rain = 0
KVP1 140434Z 10008KT 24/18 A3016 RMK A01 T02390175  RH  067%=      5-min Rain = 0
KVP1 140435Z 10008KT 24/18 A3016 RMK A01 T02390175  RH  067%=      5-min Rain = 0
KVP1 140436Z 10008KT 24/17 A3016 RMK A01 T02390174  RH  067%=      5-min Rain = 0
KVP1 140437Z 10008KT 24/17 A3016 RMK A01 T02380174  RH  067%=      5-min Rain = 0
KVP1 140438Z 09008KT 24/18 A3016 RMK A01 T02380175  RH  068%=      5-min Rain = 0
KVP1 140439Z 09008KT 24/18 A3016 RMK A01 T02380175  RH  068%=      5-min Rain = 0
KVP1 140440Z 09008KT 24/18 A3016 RMK A01 T02380175  RH  068%=      5-min Rain = 0
KVP1 140441Z 09009KT 24/18 A3017 RMK A01 T02380175  RH  068%=      5-min Rain = 0
KVP1 140442Z 09009KT 24/18 A3017 RMK A01 T02390176  RH  067%=      5-min Rain = 0
KVP1 140443Z 09009KT 24/18 A3017 RMK A01 T02400175  RH  067%=      5-min Rain = 0
KVP1 140444Z 09008KT 24/18 A3017 RMK A01 T02410176  RH  067%=      5-min Rain = 0
KVP1 140445Z 09008KT 24/18 A3017 RMK A01 T02410175  RH  067%=      5-min Rain = 0
KVP1 140446Z 09008KT 24/18 A3017 RMK A01 T02410175  RH  067%=      5-min Rain = 0
KVP1 140447Z 09008KT 24/18 A3017 RMK A01 T02420176  RH  067%=      5-min Rain = 0
KVP1 140448Z 09007KT 24/18 A3017 RMK A01 T02430176  RH  066%=      5-min Rain = 0
KVP1 140449Z 09007KT 24/18 A3017 RMK A01 T02440177  RH  066%=      5-min Rain = 0
KVP1 140450Z 09008KT 24/18 A3017 RMK A01 T02430177  RH  066%=      5-min Rain = 0
KVP1 140451Z 09007KT 24/18 A3017 RMK A01 T02440177  RH  066%=      5-min Rain = 0
KVP1 140452Z 08007KT 24/18 A3017 RMK A01 T02440177  RH  066%=      5-min Rain = 0
KVP1 140453Z 08007KT 24/18 A3018 RMK A01 T02440177  RH  066%=      5-min Rain = 0
KVP1 140454Z 08007KT 24/18 A3018 RMK A01 T02440177  RH  066%=      5-min Rain = 0
KVP1 140455Z 08007KT 25/18 A3018 RMK A01 T02450177  RH  066%=      5-min Rain = 0
KVP1 140456Z 08007KT 24/18 A3018 RMK A01 T02440177  RH  066%=      5-min Rain = 0
KVP1 140457Z 08008KT 24/18 A3018 RMK A01 T02440177  RH  066%=      5-min Rain = 0
KVP1 140458Z 09008KT 25/18 A3018 RMK A01 T02450177  RH  066%=      5-min Rain = 0
KVP1 140459Z 09008KT 25/18 A3017 RMK A01 T02450177  RH  066%=      5-min Rain = 0

Page generated in 0.131 seconds.